Wetterdaten: Montag, 08.08.2022
Datum Zeit Temp. Aussen Temp. o. S. Temp +5cm Feuchte Auss Luftdruck Regen Sonnenschein Regendauer Solar Windben Empfang
08.08.2022 00:00 18,8 C 17,8 C 14,4 C 66 % 1023,9 hPa 0,0 l/m 0 min 0 min 0 W/m 3,2 km/h (1 Bft) 100,00 %
08.08.2022 00:02 18,8 C 17,8 C 14,4 C 66 % 1023,9 hPa 0,0 l/m 0 min 0 min 0 W/m 6,4 km/h (2 Bft) 100,00 %
08.08.2022 00:04 18,8 C 17,8 C 14,4 C 66 % 1023,9 hPa 0,0 l/m 0 min 0 min 0 W/m 3,2 km/h (1 Bft) 100,00 %
08.08.2022 00:08 18,7 C 17,8 C 14,4 C 66 % 1024,0 hPa 0,0 l/m 0 min 0 min 0 W/m 12,9 km/h (3 Bft) 98,96 %
08.08.2022 00:10 18,7 C 17,8 C 13,9 C 66 % 1024,0 hPa 0,0 l/m 0 min 0 min 0 W/m 9,7 km/h (2 Bft) 97,87 %
08.08.2022 00:12 18,7 C 17,8 C 13,9 C 66 % 1024,0 hPa 0,0 l/m 0 min 0 min 0 W/m 6,4 km/h (2 Bft) 100,00 %
08.08.2022 00:14 18,7 C 17,8 C 13,9 C 66 % 1024,0 hPa 0,0 l/m 0 min 0 min 0 W/m 6,4 km/h (2 Bft) 97,87 %
08.08.2022 00:16 18,6 C 17,8 C 13,9 C 66 % 1024,0 hPa 0,0 l/m 0 min 0 min 0 W/m 3,2 km/h (1 Bft) 100,00 %
08.08.2022 00:18 18,6 C 17,2 C 13,9 C 66 % 1024,0 hPa 0,0 l/m 0 min 0 min 0 W/m 3,2 km/h (1 Bft) 100,00 %
08.08.2022 00:20 18,6 C 17,2 C 13,9 C 66 % 1024,0 hPa 0,0 l/m 0 min 0 min 0 W/m 6,4 km/h (2 Bft) 95,74 %
08.08.2022 00:22 18,6 C 17,2 C 13,9 C 66 % 1024,0 hPa 0,0 l/m 0 min 0 min 0 W/m 6,4 km/h (2 Bft) 97,87 %
08.08.2022 00:24 18,5 C 17,2 C 13,9 C 67 % 1024,0 hPa 0,0 l/m 0 min 0 min 0 W/m 3,2 km/h (1 Bft) 97,83 %
08.08.2022 00:26 18,5 C 17,2 C 13,9 C 67 % 1024,0 hPa 0,0 l/m 0 min 0 min 0 W/m 6,4 km/h (2 Bft) 97,87 %
08.08.2022 00:28 18,4 C 17,2 C 13,9 C 67 % 1024,0 hPa 0,0 l/m 0 min 0 min 0 W/m 3,2 km/h (1 Bft) 97,87 %
08.08.2022 00:30 18,4 C 17,2 C 13,9 C 67 % 1024,1 hPa 0,0 l/m 0 min 0 min 0 W/m 3,2 km/h (1 Bft) 93,62 %
08.08.2022 00:32 18,4 C 17,2 C 13,9 C 67 % 1024,1 hPa 0,0 l/m 0 min 0 min 0 W/m 6,4 km/h (2 Bft) 97,87 %
08.08.2022 00:34 18,4 C 17,2 C 13,9 C 67 % 1024,1 hPa 0,0 l/m 0 min 0 min 0 W/m 3,2 km/h (1 Bft) 97,87 %
08.08.2022 00:36 18,3 C 17,2 C 13,9 C 67 % 1024,1 hPa 0,0 l/m 0 min 0 min 0 W/m 12,9 km/h (3 Bft) 95,65 %
08.08.2022 00:38 18,3 C 17,2 C 13,9 C 67 % 1024,2 hPa 0,0 l/m 0 min 0 min 0 W/m 6,4 km/h (2 Bft) 97,87 %
08.08.2022 00:40 18,3 C 17,2 C 13,9 C 67 % 1024,2 hPa 0,0 l/m 0 min 0 min 0 W/m 6,4 km/h (2 Bft) 95,74 %
08.08.2022 00:42 18,2 C 17,2 C 13,9 C 67 % 1024,1 hPa 0,0 l/m 0 min 0 min 0 W/m 6,4 km/h (2 Bft) 95,74 %
08.08.2022 00:44 18,2 C 17,2 C 13,9 C 67 % 1024,2 hPa 0,0 l/m 0 min 0 min 0 W/m 3,2 km/h (1 Bft) 95,74 %
08.08.2022 00:46 18,2 C 17,2 C 13,9 C 67 % 1024,1 hPa 0,0 l/m 0 min 0 min 0 W/m 3,2 km/h (1 Bft) 93,62 %
08.08.2022 00:48 18,2 C 17,2 C 13,9 C 68 % 1024,1 hPa 0,0 l/m 0 min 0 min 0 W/m 6,4 km/h (2 Bft) 95,65 %
08.08.2022 00:50 18,1 C 17,2 C 13,9 C 67 % 1024,1 hPa 0,0 l/m 0 min 0 min 0 W/m 3,2 km/h (1 Bft) 95,74 %
08.08.2022 00:52 18,1 C 17,2 C 13,3 C 68 % 1024,2 hPa 0,0 l/m 0 min 0 min 0 W/m 6,4 km/h (2 Bft) 95,74 %
08.08.2022 00:54 18,1 C 17,2 C 13,3 C 68 % 1024,2 hPa 0,0 l/m 0 min 0 min 0 W/m 6,4 km/h (2 Bft) 97,87 %
08.08.2022 00:56 18,1 C 17,2 C 13,3 C 68 % 1024,2 hPa 0,0 l/m 0 min 0 min 0 W/m 6,4 km/h (2 Bft) 97,87 %
08.08.2022 00:58 18,1 C 17,2 C 13,3 C 68 % 1024,2 hPa 0,0 l/m 0 min 0 min 0 W/m 6,4 km/h (2 Bft) 97,87 %
08.08.2022 01:00 18,1 C 16,7 C 13,3 C 68 % 1024,2 hPa 0,0 l/m 0 min 0 min 0 W/m 3,2 km/h (1 Bft) 97,83 %
08.08.2022 01:02 18,0 C 16,7 C 13,3 C 68 % 1024,2 hPa 0,0 l/m 0 min 0 min 0 W/m 3,2 km/h (1 Bft) 95,83 %
08.08.2022 01:04 18,0 C 16,7 C 13,3 C 69 % 1024,2 hPa 0,0 l/m 0 min 0 min 0 W/m 9,7 km/h (2 Bft) 97,87 %
08.08.2022 01:06 17,9 C 16,7 C 13,3 C 69 % 1024,2 hPa 0,0 l/m 0 min 0 min 0 W/m 3,2 km/h (1 Bft) 97,87 %
08.08.2022 01:08 17,9 C 16,7 C 13,3 C 69 % 1024,3 hPa 0,0 l/m 0 min 0 min 0 W/m 3,2 km/h (1 Bft) 97,87 %
08.08.2022 01:10 17,9 C 16,7 C 13,3 C 69 % 1024,2 hPa 0,0 l/m 0 min 0 min 0 W/m 3,2 km/h (1 Bft) 97,87 %
08.08.2022 01:12 17,8 C 16,7 C 13,3 C 69 % 1024,2 hPa 0,0 l/m 0 min 0 min 0 W/m 9,7 km/h (2 Bft) 97,83 %
08.08.2022 01:14 17,8 C 16,7 C 13,3 C 69 % 1024,2 hPa 0,0 l/m 0 min 0 min 0 W/m 3,2 km/h (1 Bft) 97,87 %
08.08.2022 01:16 17,8 C 16,7 C 13,3 C 69 % 1024,2 hPa 0,0 l/m 0 min 0 min 0 W/m 6,4 km/h (2 Bft) 97,87 %
08.08.2022 01:18 17,8 C 16,7 C 13,3 C 69 % 1024,2 hPa 0,0 l/m 0 min 0 min 0 W/m 6,4 km/h (2 Bft) 93,62 %
08.08.2022 01:20 17,8 C 16,7 C 13,3 C 69 % 1024,2 hPa 0,0 l/m 0 min 0 min 0 W/m 6,4 km/h (2 Bft) 95,74 %
08.08.2022 01:22 17,7 C 16,7 C 13,3 C 69 % 1024,3 hPa 0,0 l/m 0 min 0 min 0 W/m 6,4 km/h (2 Bft) 91,49 %
08.08.2022 01:24 17,7 C 16,7 C 13,3 C 69 % 1024,3 hPa 0,0 l/m 0 min 0 min 0 W/m 12,9 km/h (3 Bft) 93,48 %
08.08.2022 01:26 17,7 C 16,7 C 13,3 C 70 % 1024,2 hPa 0,0 l/m 0 min 0 min 0 W/m 12,9 km/h (3 Bft) 97,87 %
08.08.2022 01:28 17,7 C 16,7 C 13,3 C 70 % 1024,3 hPa 0,0 l/m 0 min 0 min 0 W/m 6,4 km/h (2 Bft) 97,87 %
08.08.2022 01:30 17,7 C 16,7 C 13,3 C 70 % 1024,3 hPa 0,0 l/m 0 min 0 min 0 W/m 9,7 km/h (2 Bft) 95,74 %
08.08.2022 01:32 17,6 C 16,7 C 13,3 C 70 % 1024,2 hPa 0,0 l/m 0 min 0 min 0 W/m 6,4 km/h (2 Bft) 97,92 %
08.08.2022 01:34 17,6 C 16,7 C 13,3 C 70 % 1024,2 hPa 0,0 l/m 0 min 0 min 0 W/m 3,2 km/h (1 Bft) 97,87 %
08.08.2022 01:36 17,6 C 16,7 C 13,3 C 70 % 1024,2 hPa 0,0 l/m 0 min 0 min 0 W/m 6,4 km/h (2 Bft) 97,87 %
08.08.2022 01:38 17,6 C 16,7 C 13,3 C 70 % 1024,2 hPa 0,0 l/m 0 min 0 min 0 W/m 3,2 km/h (1 Bft) 95,65 %
08.08.2022 01:40 17,6 C 16,7 C 13,3 C 70 % 1024,2 hPa 0,0 l/m 0 min 0 min 0 W/m 3,2 km/h (1 Bft) 97,87 %
08.08.2022 01:42 17,5 C 16,7 C 12,8 C 70 % 1024,2 hPa 0,0 l/m 0 min 0 min 0 W/m 3,2 km/h (1 Bft) 97,87 %
08.08.2022 01:44 17,5 C 16,7 C 12,8 C 70 % 1024,2 hPa 0,0 l/m 0 min 0 min 0 W/m 3,2 km/h (1 Bft) 97,30 %
08.08.2022 01:46 17,5 C 16,1 C 12,8 C 70 % 1024,2 hPa 0,0 l/m 0 min 0 min 0 W/m 6,4 km/h (2 Bft) 97,87 %
08.08.2022 01:48 17,4 C 16,1 C 12,8 C 71 % 1024,1 hPa 0,0 l/m 0 min 0 min 0 W/m 6,4 km/h (2 Bft) 97,87 %
08.08.2022 01:50 17,4 C 16,1 C 12,8 C 71 % 1024,2 hPa 0,0 l/m 0 min 0 min 0 W/m 9,7 km/h (2 Bft) 97,87 %
08.08.2022 01:52 17,4 C 16,1 C 12,8 C 71 % 1024,2 hPa 0,0 l/m 0 min 0 min 0 W/m 6,4 km/h (2 Bft) 97,87 %
08.08.2022 01:54 17,3 C 16,1 C 12,8 C 71 % 1024,2 hPa 0,0 l/m 0 min 0 min 0 W/m 9,7 km/h (2 Bft) 97,83 %
08.08.2022 01:56 17,3 C 16,1 C 12,8 C 71 % 1024,1 hPa 0,0 l/m 0 min 0 min 0 W/m 6,4 km/h (2 Bft) 97,87 %
08.08.2022 01:58 17,3 C 16,1 C 12,8 C 71 % 1024,2 hPa 0,0 l/m 0 min 0 min 0 W/m 6,4 km/h (2 Bft) 97,87 %
08.08.2022 02:00 17,3 C 16,1 C 12,8 C 72 % 1024,1 hPa 0,0 l/m 0 min 0 min 0 W/m 12,9 km/h (3 Bft) 95,74 %
08.08.2022 02:02 17,2 C 16,1 C 12,8 C 72 % 1024,1 hPa 0,0 l/m 0 min 0 min 0 W/m 3,2 km/h (1 Bft) 95,74 %
08.08.2022 02:04 17,2 C 16,1 C 12,8 C 72 % 1024,1 hPa 0,0 l/m 0 min 0 min 0 W/m 3,2 km/h (1 Bft) 93,62 %
08.08.2022 02:05 17,2 C 16,1 C 12,8 C 72 % 1024,1 hPa 0,0 l/m 0 min 0 min 0 W/m 6,4 km/h (2 Bft) 97,37 %
08.08.2022 02:08 17,2 C 16,1 C 12,8 C 72 % 1024,1 hPa 0,0 l/m 0 min 0 min 0 W/m 3,2 km/h (1 Bft) 100,00 %
08.08.2022 02:10 17,1 C 16,1 C 12,8 C 72 % 1024,1 hPa 0,0 l/m 0 min 0 min 0 W/m 3,2 km/h (1 Bft) 96,30 %
08.08.2022 02:15 17,1 C 16,1 C 12,8 C 72 % 1024,1 hPa 0,0 l/m 0 min 0 min 0 W/m 6,4 km/h (2 Bft) 93,75 %
08.08.2022 02:16 17,1 C 16,1 C 12,8 C 72 % 1024,1 hPa 0,0 l/m 0 min 0 min 0 W/m 3,2 km/h (1 Bft) 90,91 %
08.08.2022 02:18 17,1 C 16,1 C 12,8 C 73 % 1024,0 hPa 0,0 l/m 0 min 0 min 0 W/m 3,2 km/h (1 Bft) 97,87 %
08.08.2022 02:20 17,0 C 16,1 C 12,8 C 73 % 1024,0 hPa 0,0 l/m 0 min 0 min 0 W/m 3,2 km/h (1 Bft) 97,87 %
08.08.2022 02:22 17,0 C 15,6 C 12,8 C 73 % 1024,1 hPa 0,0 l/m 0 min 0 min 0 W/m 3,2 km/h (1 Bft) 97,87 %
08.08.2022 02:24 16,9 C 15,6 C 12,8 C 73 % 1024,1 hPa 0,0 l/m 0 min 0 min 0 W/m 3,2 km/h (1 Bft) 95,74 %
08.08.2022 02:26 16,9 C 15,6 C 12,2 C 73 % 1024,1 hPa 0,0 l/m 0 min 0 min 0 W/m 3,2 km/h (1 Bft) 95,74 %
08.08.2022 02:28 16,9 C 15,6 C 12,2 C 73 % 1024,1 hPa 0,0 l/m 0 min 0 min 0 W/m 9,7 km/h (2 Bft) 97,83 %
08.08.2022 02:30 16,9 C 15,6 C 12,2 C 73 % 1024,0 hPa 0,0 l/m 0 min 0 min 0 W/m 3,2 km/h (1 Bft) 97,87 %
08.08.2022 02:32 16,8 C 15,6 C 12,2 C 74 % 1024,1 hPa 0,0 l/m 0 min 0 min 0 W/m 0,0 km/h (0 Bft) 97,87 %
08.08.2022 02:34 16,8 C 15,6 C 12,2 C 74 % 1024,0 hPa 0,0 l/m 0 min 0 min 0 W/m 3,2 km/h (1 Bft) 97,87 %
08.08.2022 02:36 16,8 C 15,6 C 12,2 C 74 % 1024,2 hPa 0,0 l/m 0 min 0 min 0 W/m 3,2 km/h (1 Bft) 96,55 %
08.08.2022 02:38 16,7 C 15,6 C 12,2 C 74 % 1024,1 hPa 0,0 l/m 0 min 0 min 0 W/m 6,4 km/h (2 Bft) 97,22 %
08.08.2022 02:40 16,7 C 15,6 C 12,2 C 74 % 1024,2 hPa 0,0 l/m 0 min 0 min 0 W/m 3,2 km/h (1 Bft) 100,00 %
08.08.2022 02:42 16,7 C 15,6 C 12,2 C 74 % 1024,1 hPa 0,0 l/m 0 min 0 min 0 W/m 3,2 km/h (1 Bft) 100,00 %
08.08.2022 02:44 16,6 C 15,6 C 12,2 C 75 % 1024,2 hPa 0,0 l/m 0 min 0 min 0 W/m 3,2 km/h (1 Bft) 97,87 %
08.08.2022 02:46 16,6 C 15,6 C 12,2 C 75 % 1024,1 hPa 0,0 l/m 0 min 0 min 0 W/m 6,4 km/h (2 Bft) 100,00 %
08.08.2022 02:48 16,6 C 15,6 C 12,2 C 75 % 1024,2 hPa 0,0 l/m 0 min 0 min 0 W/m 6,4 km/h (2 Bft) 100,00 %
08.08.2022 02:50 16,5 C 15,6 C 12,2 C 75 % 1024,1 hPa 0,0 l/m 0 min 0 min 0 W/m 12,9 km/h (3 Bft) 100,00 %
08.08.2022 02:52 16,5 C 15,6 C 12,2 C 75 % 1024,0 hPa 0,0 l/m 0 min 0 min 0 W/m 9,7 km/h (2 Bft) 100,00 %
08.08.2022 02:54 16,5 C 15,6 C 12,2 C 75 % 1024,1 hPa 0,0 l/m 0 min 0 min 0 W/m 6,4 km/h (2 Bft) 97,87 %
08.08.2022 02:56 16,4 C 15,6 C 12,2 C 75 % 1024,1 hPa 0,0 l/m 0 min 0 min 0 W/m 9,7 km/h (2 Bft) 100,00 %
08.08.2022 02:58 16,4 C 15,6 C 12,2 C 76 % 1024,1 hPa 0,0 l/m 0 min 0 min 0 W/m 9,7 km/h (2 Bft) 100,00 %
08.08.2022 03:00 16,4 C 15,6 C 12,2 C 76 % 1024,1 hPa 0,0 l/m 0 min 0 min 0 W/m 6,4 km/h (2 Bft) 100,00 %
08.08.2022 03:02 16,4 C 15,6 C 11,7 C 76 % 1024,1 hPa 0,0 l/m 0 min 0 min 0 W/m 3,2 km/h (1 Bft) 97,87 %
08.08.2022 03:04 16,3 C 15,6 C 12,2 C 76 % 1024,1 hPa 0,0 l/m 0 min 0 min 0 W/m 3,2 km/h (1 Bft) 100,00 %
08.08.2022 03:06 16,3 C 15,6 C 12,2 C 76 % 1024,1 hPa 0,0 l/m 0 min 0 min 0 W/m 6,4 km/h (2 Bft) 56,52 %
08.08.2022 03:08 16,3 C 15,6 C 12,2 C 76 % 1024,1 hPa 0,0 l/m 0 min 0 min 0 W/m 6,4 km/h (2 Bft) 97,87 %
08.08.2022 03:10 16,3 C 15,6 C 11,7 C 77 % 1024,1 hPa 0,0 l/m 0 min 0 min 0 W/m 6,4 km/h (2 Bft) 100,00 %
08.08.2022 03:12 16,2 C 15,0 C 11,7 C 77 % 1024,1 hPa 0,0 l/m 0 min 0 min 0 W/m 3,2 km/h (1 Bft) 100,00 %
08.08.2022 03:14 16,2 C 15,0 C 11,7 C 77 % 1024,1 hPa 0,0 l/m 0 min 0 min 0 W/m 3,2 km/h (1 Bft) 100,00 %
08.08.2022 03:16 16,2 C 15,0 C 11,7 C 77 % 1024,2 hPa 0,0 l/m 0 min 0 min 0 W/m 3,2 km/h (1 Bft) 97,83 %
08.08.2022 03:18 16,2 C 15,0 C 11,7 C 77 % 1024,2 hPa 0,0 l/m 0 min 0 min 0 W/m 0,0 km/h (0 Bft) 97,87 %
08.08.2022 03:20 16,1 C 15,0 C 11,7 C 77 % 1024,1 hPa 0,0 l/m 0 min 0 min 0 W/m 3,2 km/h (1 Bft) 97,87 %
08.08.2022 03:22 16,1 C 15,0 C 11,7 C 77 % 1024,1 hPa 0,0 l/m 0 min 0 min 0 W/m 3,2 km/h (1 Bft) 95,74 %
08.08.2022 03:24 16,1 C 15,0 C 11,7 C 77 % 1024,2 hPa 0,0 l/m 0 min 0 min 0 W/m 3,2 km/h (1 Bft) 97,87 %
08.08.2022 03:26 16,1 C 15,0 C 11,7 C 77 % 1024,2 hPa 0,0 l/m 0 min 0 min 0 W/m 0,0 km/h (0 Bft) 97,87 %
08.08.2022 03:28 16,0 C 15,0 C 11,7 C 78 % 1024,2 hPa 0,0 l/m 0 min 0 min 0 W/m 3,2 km/h (1 Bft) 95,65 %
08.08.2022 03:30 16,0 C 15,0 C 11,7 C 78 % 1024,2 hPa 0,0 l/m 0 min 0 min 0 W/m 3,2 km/h (1 Bft) 97,87 %
08.08.2022 03:32 15,9 C 15,0 C 11,7 C 78 % 1024,2 hPa 0,0 l/m 0 min 0 min 0 W/m 3,2 km/h (1 Bft) 97,87 %
08.08.2022 03:34 15,9 C 15,0 C 11,7 C 78 % 1024,1 hPa 0,0 l/m 0 min 0 min 0 W/m 3,2 km/h (1 Bft) 97,87 %
08.08.2022 03:36 15,9 C 15,0 C 11,7 C 78 % 1024,1 hPa 0,0 l/m 0 min 0 min 0 W/m 6,4 km/h (2 Bft) 98,28 %
08.08.2022 03:38 15,9 C 15,0 C 11,7 C 78 % 1024,1 hPa 0,0 l/m 0 min 0 min 0 W/m 3,2 km/h (1 Bft) 97,22 %
08.08.2022 03:40 15,8 C 15,0 C 11,7 C 78 % 1024,1 hPa 0,0 l/m 0 min 0 min 0 W/m 3,2 km/h (1 Bft) 97,83 %
08.08.2022 03:42 15,8 C 15,0 C 11,7 C 78 % 1024,1 hPa 0,0 l/m 0 min 0 min 0 W/m 3,2 km/h (1 Bft) 97,87 %
08.08.2022 03:44 15,8 C 15,0 C 11,7 C 78 % 1024,1 hPa 0,0 l/m 0 min 0 min 0 W/m 3,2 km/h (1 Bft) 97,87 %
08.08.2022 03:46 15,8 C 14,4 C 11,7 C 79 % 1024,0 hPa 0,0 l/m 0 min 0 min 0 W/m 3,2 km/h (1 Bft) 91,49 %
08.08.2022 03:48 15,8 C 14,4 C 11,7 C 79 % 1024,1 hPa 0,0 l/m 0 min 0 min 0 W/m 3,2 km/h (1 Bft) 97,87 %
08.08.2022 03:50 15,8 C 14,4 C 11,1 C 79 % 1024,0 hPa 0,0 l/m 0 min 0 min 0 W/m 3,2 km/h (1 Bft) 97,87 %
08.08.2022 03:52 15,7 C 14,4 C 11,1 C 79 % 1024,0 hPa 0,0 l/m 0 min 0 min 0 W/m 3,2 km/h (1 Bft) 97,83 %
08.08.2022 03:54 15,7 C 14,4 C 11,1 C 79 % 1024,0 hPa 0,0 l/m 0 min 0 min 0 W/m 9,7 km/h (2 Bft) 95,74 %
08.08.2022 03:56 15,7 C 14,4 C 11,1 C 79 % 1024,1 hPa 0,0 l/m 0 min 0 min 0 W/m 3,2 km/h (1 Bft) 95,74 %
08.08.2022 03:58 15,6 C 14,4 C 11,1 C 79 % 1024,1 hPa 0,0 l/m 0 min 0 min 0 W/m 6,4 km/h (2 Bft) 96,43 %
08.08.2022 04:00 15,6 C 14,4 C 11,1 C 80 % 1024,1 hPa 0,0 l/m 0 min 0 min 0 W/m 3,2 km/h (1 Bft) 95,65 %
08.08.2022 04:02 15,6 C 14,4 C 11,1 C 80 % 1024,1 hPa 0,0 l/m 0 min 0 min 0 W/m 3,2 km/h (1 Bft) 97,87 %
08.08.2022 04:04 15,6 C 14,4 C 11,1 C 80 % 1024,1 hPa 0,0 l/m 0 min 0 min 0 W/m 3,2 km/h (1 Bft) 97,87 %
08.08.2022 04:06 15,6 C 14,4 C 11,1 C 80 % 1024,1 hPa 0,0 l/m 0 min 0 min 0 W/m 3,2 km/h (1 Bft) 95,74 %
08.08.2022 04:08 15,6 C 14,4 C 11,1 C 80 % 1024,1 hPa 0,0 l/m 0 min 0 min 0 W/m 3,2 km/h (1 Bft) 97,87 %
08.08.2022 04:10 15,6 C 14,4 C 11,1 C 80 % 1024,1 hPa 0,0 l/m 0 min 0 min 0 W/m 6,4 km/h (2 Bft) 97,87 %
08.08.2022 04:12 15,5 C 14,4 C 11,1 C 80 % 1024,1 hPa 0,0 l/m 0 min 0 min 0 W/m 6,4 km/h (2 Bft) 97,83 %
08.08.2022 04:14 15,5 C 14,4 C 11,1 C 80 % 1024,1 hPa 0,0 l/m 0 min 0 min 0 W/m 3,2 km/h (1 Bft) 95,74 %
08.08.2022 04:16 15,4 C 14,4 C 11,1 C 81 % 1024,1 hPa 0,0 l/m 0 min 0 min 0 W/m 3,2 km/h (1 Bft) 97,87 %
08.08.2022 04:18 15,4 C 14,4 C 11,1 C 81 % 1024,1 hPa 0,0 l/m 0 min 0 min 0 W/m 3,2 km/h (1 Bft) 97,87 %
08.08.2022 04:20 15,4 C 14,4 C 11,1 C 81 % 1024,1 hPa 0,0 l/m 0 min 0 min 0 W/m 3,2 km/h (1 Bft) 97,87 %
08.08.2022 04:22 15,4 C 14,4 C 11,1 C 81 % 1024,1 hPa 0,0 l/m 0 min 0 min 0 W/m 9,7 km/h (2 Bft) 100,00 %
08.08.2022 04:24 15,4 C 14,4 C 11,1 C 81 % 1024,1 hPa 0,0 l/m 0 min 0 min 0 W/m 9,7 km/h (2 Bft) 100,00 %
08.08.2022 04:26 15,4 C 14,4 C 11,1 C 81 % 1024,1 hPa 0,0 l/m 0 min 0 min 0 W/m 3,2 km/h (1 Bft) 100,00 %
08.08.2022 04:28 15,3 C 14,4 C 11,1 C 81 % 1024,1 hPa 0,0 l/m 0 min 0 min 0 W/m 3,2 km/h (1 Bft) 100,00 %
08.08.2022 04:30 15,3 C 14,4 C 11,1 C 81 % 1024,1 hPa 0,0 l/m 0 min 0 min 0 W/m 6,4 km/h (2 Bft) 100,00 %
08.08.2022 04:32 15,3 C 14,4 C 11,1 C 81 % 1024,1 hPa 0,0 l/m 0 min 0 min 0 W/m 6,4 km/h (2 Bft) 97,87 %
08.08.2022 04:34 15,2 C 14,4 C 10,6 C 81 % 1024,1 hPa 0,0 l/m 0 min 0 min 0 W/m 6,4 km/h (2 Bft) 95,74 %
08.08.2022 04:36 15,2 C 13,9 C 10,6 C 81 % 1024,1 hPa 0,0 l/m 0 min 0 min 0 W/m 3,2 km/h (1 Bft) 97,83 %
08.08.2022 04:38 15,2 C 13,9 C 10,6 C 81 % 1024,1 hPa 0,0 l/m 0 min 0 min 0 W/m 3,2 km/h (1 Bft) 97,87 %
08.08.2022 04:40 15,1 C 13,9 C 10,6 C 81 % 1024,1 hPa 0,0 l/m 0 min 0 min 0 W/m 6,4 km/h (2 Bft) 97,87 %
08.08.2022 04:42 15,1 C 13,9 C 10,6 C 81 % 1024,1 hPa 0,0 l/m 0 min 0 min 0 W/m 3,2 km/h (1 Bft) 97,87 %
08.08.2022 04:44 15,0 C 13,9 C 10,6 C 82 % 1024,0 hPa 0,0 l/m 0 min 0 min 0 W/m 3,2 km/h (1 Bft) 97,87 %
08.08.2022 04:46 14,9 C 13,9 C 10,6 C 82 % 1024,0 hPa 0,0 l/m 0 min 0 min 0 W/m 0,0 km/h (0 Bft) 97,87 %
08.08.2022 04:48 14,9 C 13,9 C 10,6 C 82 % 1024,0 hPa 0,0 l/m 0 min 0 min 0 W/m 0,0 km/h (0 Bft) 97,83 %
08.08.2022 04:50 14,9 C 13,9 C 10,6 C 82 % 1024,0 hPa 0,0 l/m 0 min 0 min 0 W/m 0,0 km/h (0 Bft) 97,87 %
08.08.2022 04:52 14,8 C 13,9 C 10,6 C 82 % 1024,0 hPa 0,0 l/m 0 min 0 min 0 W/m 0,0 km/h (0 Bft) 95,74 %
08.08.2022 04:54 14,8 C 13,9 C 10,6 C 83 % 1024,0 hPa 0,0 l/m 0 min 0 min 0 W/m 3,2 km/h (1 Bft) 95,74 %
08.08.2022 04:56 14,8 C 13,9 C 10,6 C 83 % 1024,0 hPa 0,0 l/m 0 min 0 min 0 W/m 0,0 km/h (0 Bft) 93,62 %
08.08.2022 04:58 14,8 C 13,9 C 10,6 C 83 % 1024,0 hPa 0,0 l/m 0 min 0 min 0 W/m 3,2 km/h (1 Bft) 97,87 %
08.08.2022 05:00 14,7 C 13,9 C 10,6 C 83 % 1024,0 hPa 0,0 l/m 0 min 0 min 0 W/m 3,2 km/h (1 Bft) 97,83 %
08.08.2022 05:02 14,7 C 13,9 C 10,6 C 84 % 1024,0 hPa 0,0 l/m 0 min 0 min 0 W/m 0,0 km/h (0 Bft) 95,74 %
08.08.2022 05:04 14,7 C 13,3 C 10,6 C 84 % 1024,0 hPa 0,0 l/m 0 min 0 min 0 W/m 3,2 km/h (1 Bft) 97,87 %
08.08.2022 05:06 14,7 C 13,3 C 10,6 C 84 % 1024,0 hPa 0,0 l/m 0 min 0 min 0 W/m 0,0 km/h (0 Bft) 97,87 %
08.08.2022 05:08 14,7 C 13,3 C 10,6 C 84 % 1024,0 hPa 0,0 l/m 0 min 0 min 0 W/m 0,0 km/h (0 Bft) 95,74 %
08.08.2022 05:10 14,7 C 13,3 C 10,6 C 84 % 1024,1 hPa 0,0 l/m 0 min 0 min 0 W/m 0,0 km/h (0 Bft) 97,87 %
08.08.2022 05:12 14,6 C 13,3 C 10,6 C 84 % 1024,0 hPa 0,0 l/m 0 min 0 min 0 W/m 0,0 km/h (0 Bft) 95,65 %
08.08.2022 05:14 14,6 C 13,3 C 10,6 C 84 % 1024,0 hPa 0,0 l/m 0 min 0 min 0 W/m 0,0 km/h (0 Bft) 97,87 %
08.08.2022 05:16 14,6 C 13,3 C 10,6 C 84 % 1024,0 hPa 0,0 l/m 0 min 0 min 0 W/m 0,0 km/h (0 Bft) 97,87 %
08.08.2022 05:18 14,6 C 13,3 C 10,0 C 84 % 1024,0 hPa 0,0 l/m 0 min 0 min 0 W/m 0,0 km/h (0 Bft) 97,87 %
08.08.2022 05:20 14,5 C 13,3 C 10,0 C 84 % 1024,0 hPa 0,0 l/m 0 min 0 min 0 W/m 0,0 km/h (0 Bft) 97,87 %
08.08.2022 05:22 14,5 C 13,3 C 10,0 C 85 % 1024,0 hPa 0,0 l/m 0 min 0 min 0 W/m 0,0 km/h (0 Bft) 97,87 %
08.08.2022 05:24 14,4 C 13,3 C 10,0 C 85 % 1024,1 hPa 0,0 l/m 0 min 0 min 0 W/m 0,0 km/h (0 Bft) 97,83 %
08.08.2022 05:26 14,4 C 13,3 C 10,0 C 85 % 1024,1 hPa 0,0 l/m 0 min 0 min 0 W/m 6,4 km/h (2 Bft) 95,74 %
08.08.2022 05:28 14,3 C 13,3 C 10,0 C 85 % 1024,1 hPa 0,0 l/m 0 min 0 min 0 W/m 3,2 km/h (1 Bft) 100,00 %
08.08.2022 05:30 14,3 C 13,3 C 10,0 C 85 % 1024,1 hPa 0,0 l/m 0 min 0 min 0 W/m 3,2 km/h (1 Bft) 97,87 %
08.08.2022 05:32 14,3 C 13,3 C 10,0 C 85 % 1024,1 hPa 0,0 l/m 0 min 0 min 0 W/m 0,0 km/h (0 Bft) 97,87 %
08.08.2022 05:34 14,3 C 13,3 C 10,0 C 85 % 1024,2 hPa 0,0 l/m 0 min 0 min 0 W/m 0,0 km/h (0 Bft) 97,87 %
08.08.2022 05:36 14,3 C 13,3 C 10,0 C 85 % 1024,2 hPa 0,0 l/m 0 min 0 min 0 W/m 0,0 km/h (0 Bft) 97,83 %
08.08.2022 05:38 14,3 C 13,3 C 10,0 C 85 % 1024,2 hPa 0,0 l/m 0 min 0 min 0 W/m 3,2 km/h (1 Bft) 97,87 %
08.08.2022 05:40 14,3 C 13,3 C 10,0 C 85 % 1024,3 hPa 0,0 l/m 0 min 0 min 0 W/m 3,2 km/h (1 Bft) 93,62 %
08.08.2022 05:42 14,3 C 13,3 C 10,0 C 86 % 1024,3 hPa 0,0 l/m 0 min 0 min 0 W/m 0,0 km/h (0 Bft) 95,74 %
08.08.2022 05:44 14,3 C 13,3 C 10,0 C 86 % 1024,3 hPa 0,0 l/m 0 min 0 min 0 W/m 3,2 km/h (1 Bft) 95,74 %
08.08.2022 05:46 14,3 C 13,3 C 10,0 C 86 % 1024,2 hPa 0,0 l/m 0 min 0 min 0 W/m 0,0 km/h (0 Bft) 95,74 %
08.08.2022 05:48 14,3 C 13,3 C 10,0 C 86 % 1024,3 hPa 0,0 l/m 0 min 0 min 0 W/m 0,0 km/h (0 Bft) 95,65 %
08.08.2022 05:50 14,2 C 13,3 C 10,0 C 86 % 1024,3 hPa 0,0 l/m 0 min 0 min 0 W/m 0,0 km/h (0 Bft) 93,62 %
08.08.2022 05:52 14,2 C 13,3 C 10,0 C 86 % 1024,4 hPa 0,0 l/m 0 min 0 min 0 W/m 3,2 km/h (1 Bft) 95,74 %
08.08.2022 05:54 14,1 C 12,8 C 10,0 C 86 % 1024,4 hPa 0,0 l/m 0 min 0 min 0 W/m 0,0 km/h (0 Bft) 93,62 %
08.08.2022 05:56 14,1 C 12,8 C 10,0 C 86 % 1024,4 hPa 0,0 l/m 0 min 0 min 0 W/m 3,2 km/h (1 Bft) 93,62 %
08.08.2022 05:58 14,1 C 12,8 C 10,0 C 86 % 1024,4 hPa 0,0 l/m 0 min 0 min 0 W/m 3,2 km/h (1 Bft) 95,74 %
08.08.2022 06:00 14,1 C 12,8 C 10,0 C 86 % 1024,4 hPa 0,0 l/m 0 min 0 min 0 W/m 0,0 km/h (0 Bft) 95,65 %
08.08.2022 06:02 14,1 C 12,8 C 10,0 C 86 % 1024,4 hPa 0,0 l/m 0 min 0 min 0 W/m 3,2 km/h (1 Bft) 95,74 %
08.08.2022 06:04 14,1 C 12,8 C 10,0 C 87 % 1024,4 hPa 0,0 l/m 0 min 0 min 0 W/m 0,0 km/h (0 Bft) 97,87 %
08.08.2022 06:07 14,1 C 12,8 C 10,0 C 87 % 1024,5 hPa 0,0 l/m 0 min 0 min 0 W/m 3,2 km/h (1 Bft) 97,87 %
08.08.2022 06:10 14,1 C 12,8 C 10,0 C 87 % 1024,6 hPa 0,0 l/m 0 min 0 min 2 W/m 3,2 km/h (1 Bft) 97,73 %
08.08.2022 06:12 14,1 C 12,8 C 10,0 C 88 % 1024,6 hPa 0,0 l/m 0 min 0 min 5 W/m 6,4 km/h (2 Bft) 97,87 %
08.08.2022 06:14 14,0 C 12,8 C 10,0 C 88 % 1024,6 hPa 0,0 l/m 0 min 0 min 5 W/m 3,2 km/h (1 Bft) 95,74 %
08.08.2022 06:16 14,0 C 13,3 C 10,0 C 88 % 1024,6 hPa 0,0 l/m 0 min 0 min 7 W/m 0,0 km/h (0 Bft) 97,83 %
08.08.2022 06:18 14,0 C 13,3 C 10,0 C 88 % 1024,6 hPa 0,0 l/m 0 min 0 min 8 W/m 0,0 km/h (0 Bft) 97,87 %
08.08.2022 06:20 14,0 C 13,3 C 10,0 C 88 % 1024,6 hPa 0,0 l/m 0 min 0 min 9 W/m 0,0 km/h (0 Bft) 97,87 %
08.08.2022 06:22 14,0 C 13,3 C 10,0 C 88 % 1024,6 hPa 0,0 l/m 0 min 0 min 9 W/m 0,0 km/h (0 Bft) 100,00 %
08.08.2022 06:24 14,0 C 13,3 C 10,0 C 88 % 1024,6 hPa 0,0 l/m 0 min 0 min 11 W/m 3,2 km/h (1 Bft) 100,00 %
08.08.2022 06:26 14,0 C 13,3 C 10,0 C 88 % 1024,6 hPa 0,0 l/m 0 min 0 min 12 W/m 3,2 km/h (1 Bft) 100,00 %
08.08.2022 06:28 14,0 C 13,3 C 10,0 C 88 % 1024,6 hPa 0,0 l/m 0 min 0 min 12 W/m 6,4 km/h (2 Bft) 100,00 %
08.08.2022 06:30 14,1 C 13,3 C 10,0 C 89 % 1024,6 hPa 0,0 l/m 0 min 0 min 13 W/m 3,2 km/h (1 Bft) 100,00 %
08.08.2022 06:32 14,1 C 13,3 C 10,0 C 89 % 1024,7 hPa 0,0 l/m 0 min 0 min 14 W/m 3,2 km/h (1 Bft) 100,00 %
08.08.2022 06:34 14,1 C 13,3 C 10,0 C 89 % 1024,6 hPa 0,0 l/m 0 min 0 min 14 W/m 3,2 km/h (1 Bft) 95,74 %
08.08.2022 06:36 14,1 C 13,3 C 10,0 C 89 % 1024,6 hPa 0,0 l/m 0 min 0 min 16 W/m 3,2 km/h (1 Bft) 100,00 %
08.08.2022 06:38 14,1 C 13,3 C 10,0 C 89 % 1024,6 hPa 0,0 l/m 0 min 0 min 16 W/m 3,2 km/h (1 Bft) 100,00 %
08.08.2022 06:40 14,1 C 13,3 C 10,0 C 89 % 1024,6 hPa 0,0 l/m 0 min 0 min 16 W/m 3,2 km/h (1 Bft) 100,00 %
08.08.2022 06:42 14,1 C 13,3 C 10,0 C 89 % 1024,6 hPa 0,0 l/m 0 min 0 min 17 W/m 3,2 km/h (1 Bft) 97,87 %
08.08.2022 06:44 14,1 C 13,3 C 10,0 C 89 % 1024,6 hPa 0,0 l/m 0 min 0 min 18 W/m 0,0 km/h (0 Bft) 100,00 %
08.08.2022 06:46 14,1 C 13,3 C 10,6 C 89 % 1024,7 hPa 0,0 l/m 0 min 0 min 18 W/m 3,2 km/h (1 Bft) 97,56 %
08.08.2022 06:48 14,1 C 13,3 C 10,0 C 89 % 1024,7 hPa 0,0 l/m 0 min 0 min 19 W/m 3,2 km/h (1 Bft) 100,00 %
08.08.2022 06:50 14,1 C 13,3 C 10,6 C 89 % 1024,7 hPa 0,0 l/m 0 min 0 min 19 W/m 3,2 km/h (1 Bft) 100,00 %
08.08.2022 06:52 14,2 C 13,3 C 10,6 C 89 % 1024,7 hPa 0,0 l/m 0 min 0 min 19 W/m 0,0 km/h (0 Bft) 100,00 %
08.08.2022 06:54 14,2 C 13,3 C 10,6 C 89 % 1024,7 hPa 0,0 l/m 0 min 0 min 20 W/m 3,2 km/h (1 Bft) 97,87 %
08.08.2022 06:56 14,2 C 13,3 C 10,6 C 89 % 1024,7 hPa 0,0 l/m 0 min 0 min 21 W/m 3,2 km/h (1 Bft) 100,00 %
08.08.2022 06:58 14,2 C 13,3 C 10,6 C 89 % 1024,7 hPa 0,0 l/m 0 min 0 min 21 W/m 3,2 km/h (1 Bft) 100,00 %
08.08.2022 07:00 14,2 C 13,9 C 10,6 C 90 % 1024,7 hPa 0,0 l/m 0 min 0 min 22 W/m 6,4 km/h (2 Bft) 100,00 %
08.08.2022 07:02 14,3 C 13,9 C 10,6 C 90 % 1024,7 hPa 0,0 l/m 0 min 0 min 23 W/m 0,0 km/h (0 Bft) 100,00 %
08.08.2022 07:04 14,3 C 13,9 C 10,6 C 90 % 1024,7 hPa 0,0 l/m 0 min 0 min 24 W/m 3,2 km/h (1 Bft) 97,92 %
08.08.2022 07:06 14,3 C 13,9 C 10,6 C 90 % 1024,8 hPa 0,0 l/m 0 min 0 min 25 W/m 0,0 km/h (0 Bft) 100,00 %
08.08.2022 07:08 14,3 C 13,9 C 10,6 C 90 % 1024,8 hPa 0,0 l/m 0 min 0 min 26 W/m 3,2 km/h (1 Bft) 100,00 %
08.08.2022 07:10 14,3 C 13,9 C 10,6 C 90 % 1024,8 hPa 0,0 l/m 0 min 0 min 26 W/m 0,0 km/h (0 Bft) 100,00 %
08.08.2022 07:12 14,3 C 13,9 C 10,6 C 90 % 1024,8 hPa 0,0 l/m 0 min 0 min 26 W/m 3,2 km/h (1 Bft) 97,83 %
08.08.2022 07:14 14,3 C 13,9 C 10,6 C 90 % 1024,8 hPa 0,0 l/m 0 min 0 min 26 W/m 3,2 km/h (1 Bft) 95,74 %
08.08.2022 07:16 14,3 C 13,9 C 10,6 C 90 % 1024,8 hPa 0,0 l/m 0 min 0 min 28 W/m 3,2 km/h (1 Bft) 97,87 %
08.08.2022 07:18 14,3 C 13,9 C 10,6 C 89 % 1024,8 hPa 0,0 l/m 0 min 0 min 30 W/m 6,4 km/h (2 Bft) 97,87 %
08.08.2022 07:20 14,3 C 13,9 C 10,6 C 89 % 1024,7 hPa 0,0 l/m 0 min 0 min 30 W/m 6,4 km/h (2 Bft) 97,92 %
08.08.2022 07:22 14,3 C 13,9 C 10,6 C 89 % 1024,7 hPa 0,0 l/m 0 min 0 min 32 W/m 3,2 km/h (1 Bft) 97,87 %
08.08.2022 07:24 14,4 C 13,9 C 10,6 C 89 % 1024,8 hPa 0,0 l/m 0 min 0 min 32 W/m 3,2 km/h (1 Bft) 97,83 %
08.08.2022 07:26 14,4 C 13,9 C 10,6 C 89 % 1024,8 hPa 0,0 l/m 0 min 0 min 33 W/m 3,2 km/h (1 Bft) 95,74 %
08.08.2022 07:28 14,4 C 14,4 C 11,1 C 89 % 1024,7 hPa 0,0 l/m 0 min 0 min 34 W/m 3,2 km/h (1 Bft) 97,87 %
08.08.2022 07:30 14,5 C 14,4 C 11,1 C 89 % 1024,7 hPa 0,0 l/m 0 min 0 min 35 W/m 6,4 km/h (2 Bft) 97,87 %
08.08.2022 07:32 14,6 C 14,4 C 11,1 C 89 % 1024,7 hPa 0,0 l/m 0 min 0 min 37 W/m 3,2 km/h (1 Bft) 97,92 %
08.08.2022 07:34 14,6 C 14,4 C 11,1 C 89 % 1024,7 hPa 0,0 l/m 0 min 0 min 38 W/m 9,7 km/h (2 Bft) 97,87 %
08.08.2022 07:36 14,7 C 14,4 C 11,1 C 89 % 1024,7 hPa 0,0 l/m 0 min 0 min 39 W/m 6,4 km/h (2 Bft) 97,87 %
08.08.2022 07:38 14,7 C 14,4 C 11,1 C 89 % 1024,7 hPa 0,0 l/m 0 min 0 min 39 W/m 3,2 km/h (1 Bft) 95,74 %
08.08.2022 07:40 14,7 C 14,4 C 11,1 C 89 % 1024,7 hPa 0,0 l/m 0 min 0 min 40 W/m 6,4 km/h (2 Bft) 97,87 %
08.08.2022 07:42 14,8 C 14,4 C 11,1 C 88 % 1024,8 hPa 0,0 l/m 0 min 0 min 40 W/m 6,4 km/h (2 Bft) 97,87 %
08.08.2022 07:44 14,8 C 14,4 C 11,1 C 88 % 1024,8 hPa 0,0 l/m 0 min 0 min 40 W/m 6,4 km/h (2 Bft) 100,00 %
08.08.2022 07:46 14,9 C 14,4 C 11,1 C 88 % 1024,8 hPa 0,0 l/m 0 min 0 min 42 W/m 9,7 km/h (2 Bft) 100,00 %
08.08.2022 07:48 14,9 C 15,0 C 11,1 C 88 % 1024,9 hPa 0,0 l/m 0 min 0 min 40 W/m 6,4 km/h (2 Bft) 100,00 %
08.08.2022 07:50 15,0 C 15,0 C 11,1 C 88 % 1024,8 hPa 0,0 l/m 0 min 0 min 40 W/m 3,2 km/h (1 Bft) 100,00 %
08.08.2022 07:52 15,1 C 15,0 C 11,1 C 87 % 1024,9 hPa 0,0 l/m 0 min 0 min 44 W/m 6,4 km/h (2 Bft) 97,87 %
08.08.2022 07:54 15,1 C 15,0 C 11,1 C 87 % 1024,9 hPa 0,0 l/m 0 min 0 min 46 W/m 6,4 km/h (2 Bft) 100,00 %
08.08.2022 07:56 15,2 C 15,0 C 11,7 C 87 % 1024,9 hPa 0,0 l/m 0 min 0 min 46 W/m 6,4 km/h (2 Bft) 100,00 %
08.08.2022 07:58 15,2 C 15,0 C 11,7 C 87 % 1024,9 hPa 0,0 l/m 0 min 0 min 47 W/m 6,4 km/h (2 Bft) 97,87 %
08.08.2022 08:00 15,3 C 15,0 C 11,7 C 87 % 1024,9 hPa 0,0 l/m 0 min 0 min 49 W/m 3,2 km/h (1 Bft) 97,83 %
08.08.2022 08:02 15,3 C 15,0 C 11,7 C 86 % 1025,0 hPa 0,0 l/m 0 min 0 min 49 W/m 12,9 km/h (3 Bft) 93,62 %
08.08.2022 08:04 15,4 C 15,0 C 11,7 C 86 % 1025,0 hPa 0,0 l/m 0 min 0 min 50 W/m 9,7 km/h (2 Bft) 97,87 %
08.08.2022 08:06 15,4 C 15,0 C 11,7 C 86 % 1025,0 hPa 0,0 l/m 0 min 0 min 51 W/m 6,4 km/h (2 Bft) 95,74 %
08.08.2022 08:08 15,5 C 15,6 C 11,7 C 86 % 1025,0 hPa 0,0 l/m 0 min 0 min 51 W/m 6,4 km/h (2 Bft) 95,74 %
08.08.2022 08:10 15,6 C 15,6 C 11,7 C 86 % 1025,0 hPa 0,0 l/m 0 min 0 min 52 W/m 9,7 km/h (2 Bft) 95,65 %
08.08.2022 08:12 15,6 C 15,6 C 11,7 C 86 % 1025,0 hPa 0,0 l/m 0 min 0 min 54 W/m 9,7 km/h (2 Bft) 93,62 %
08.08.2022 08:14 15,7 C 15,6 C 11,7 C 85 % 1025,0 hPa 0,0 l/m 0 min 0 min 56 W/m 6,4 km/h (2 Bft) 95,74 %
08.08.2022 08:16 15,7 C 15,6 C 11,7 C 85 % 1025,1 hPa 0,0 l/m 0 min 0 min 57 W/m 9,7 km/h (2 Bft) 95,74 %
08.08.2022 08:18 15,8 C 15,6 C 12,2 C 85 % 1025,1 hPa 0,0 l/m 0 min 0 min 95 W/m 6,4 km/h (2 Bft) 93,62 %
08.08.2022 08:20 15,8 C 15,6 C 12,2 C 85 % 1025,1 hPa 0,0 l/m 2 min 0 min 239 W/m 6,4 km/h (2 Bft) 95,74 %
08.08.2022 08:22 15,9 C 15,6 C 12,2 C 84 % 1025,1 hPa 0,0 l/m 2 min 0 min 238 W/m 9,7 km/h (2 Bft) 93,62 %
08.08.2022 08:24 15,9 C 15,6 C 12,2 C 84 % 1025,1 hPa 0,0 l/m 2 min 0 min 198 W/m 6,4 km/h (2 Bft) 95,65 %
08.08.2022 08:26 16,0 C 15,6 C 12,2 C 84 % 1025,1 hPa 0,0 l/m 0 min 0 min 108 W/m 6,4 km/h (2 Bft) 95,74 %
08.08.2022 08:28 16,1 C 15,6 C 12,2 C 84 % 1025,2 hPa 0,0 l/m 0 min 0 min 138 W/m 12,9 km/h (3 Bft) 95,74 %
08.08.2022 08:30 16,1 C 16,1 C 12,2 C 84 % 1025,2 hPa 0,0 l/m 2 min 0 min 288 W/m 6,4 km/h (2 Bft) 95,74 %
08.08.2022 08:32 16,2 C 16,1 C 12,2 C 84 % 1025,2 hPa 0,0 l/m 2 min 0 min 308 W/m 6,4 km/h (2 Bft) 97,22 %
08.08.2022 08:34 16,2 C 16,1 C 12,2 C 83 % 1025,2 hPa 0,0 l/m 2 min 0 min 311 W/m 12,9 km/h (3 Bft) 95,74 %
08.08.2022 08:36 16,3 C 16,1 C 12,8 C 83 % 1025,3 hPa 0,0 l/m 2 min 0 min 318 W/m 9,7 km/h (2 Bft) 93,10 %
08.08.2022 08:38 16,3 C 16,7 C 12,8 C 83 % 1025,2 hPa 0,0 l/m 2 min 0 min 315 W/m 6,4 km/h (2 Bft) 97,14 %
08.08.2022 08:40 16,4 C 16,7 C 12,8 C 83 % 1025,3 hPa 0,0 l/m 2 min 0 min 297 W/m 3,2 km/h (1 Bft) 93,62 %
08.08.2022 08:42 16,5 C 16,7 C 12,8 C 83 % 1025,2 hPa 0,0 l/m 2 min 0 min 304 W/m 6,4 km/h (2 Bft) 93,62 %
08.08.2022 08:44 16,6 C 16,7 C 12,8 C 83 % 1025,2 hPa 0,0 l/m 2 min 0 min 344 W/m 6,4 km/h (2 Bft) 95,74 %
08.08.2022 08:46 16,7 C 16,7 C 12,8 C 82 % 1025,2 hPa 0,0 l/m 2 min 0 min 359 W/m 3,2 km/h (1 Bft) 95,74 %
08.08.2022 08:48 16,7 C 16,7 C 12,8 C 82 % 1025,2 hPa 0,0 l/m 2 min 0 min 373 W/m 12,9 km/h (3 Bft) 97,87 %
08.08.2022 08:50 16,8 C 16,7 C 12,8 C 82 % 1025,3 hPa 0,0 l/m 2 min 0 min 344 W/m 16,1 km/h (3 Bft) 95,65 %
08.08.2022 08:52 16,9 C 16,7 C 12,8 C 81 % 1025,3 hPa 0,0 l/m 2 min 0 min 343 W/m 16,1 km/h (3 Bft) 95,74 %
08.08.2022 08:54 17,0 C 17,2 C 12,8 C 81 % 1025,3 hPa 0,0 l/m 2 min 0 min 306 W/m 9,7 km/h (2 Bft) 97,87 %
08.08.2022 08:56 17,1 C 18,3 C 12,8 C 81 % 1025,3 hPa 0,0 l/m 2 min 0 min 333 W/m 3,2 km/h (1 Bft) 97,87 %
08.08.2022 08:58 17,2 C 20,0 C 13,3 C 81 % 1025,2 hPa 0,0 l/m 2 min 0 min 374 W/m 6,4 km/h (2 Bft) 97,87 %
08.08.2022 09:00 17,4 C 21,1 C 13,3 C 80 % 1025,2 hPa 0,0 l/m 2 min 0 min 394 W/m 9,7 km/h (2 Bft) 97,87 %
08.08.2022 09:02 17,5 C 22,2 C 13,3 C 80 % 1025,3 hPa 0,0 l/m 2 min 0 min 377 W/m 3,2 km/h (1 Bft) 97,83 %
08.08.2022 09:04 17,7 C 22,8 C 13,9 C 79 % 1025,3 hPa 0,0 l/m 2 min 0 min 424 W/m 12,9 km/h (3 Bft) 100,00 %
08.08.2022 09:06 17,8 C 23,3 C 14,4 C 78 % 1025,3 hPa 0,0 l/m 2 min 0 min 428 W/m 6,4 km/h (2 Bft) 97,87 %
08.08.2022 09:08 18,0 C 23,9 C 15,0 C 78 % 1025,2 hPa 0,0 l/m 2 min 0 min 379 W/m 6,4 km/h (2 Bft) 100,00 %
08.08.2022 09:10 18,1 C 23,9 C 15,0 C 77 % 1025,3 hPa 0,0 l/m 2 min 0 min 430 W/m 12,9 km/h (3 Bft) 100,00 %
08.08.2022 09:12 18,3 C 24,4 C 15,6 C 77 % 1025,3 hPa 0,0 l/m 2 min 0 min 444 W/m 9,7 km/h (2 Bft) 97,87 %
08.08.2022 09:14 18,4 C 25,0 C 16,1 C 76 % 1025,3 hPa 0,0 l/m 2 min 0 min 452 W/m 6,4 km/h (2 Bft) 97,83 %
08.08.2022 09:16 18,6 C 25,0 C 16,7 C 75 % 1025,3 hPa 0,0 l/m 2 min 0 min 456 W/m 9,7 km/h (2 Bft) 97,87 %
08.08.2022 09:18 18,7 C 24,4 C 16,7 C 75 % 1025,3 hPa 0,0 l/m 2 min 0 min 464 W/m 12,9 km/h (3 Bft) 97,87 %
08.08.2022 09:20 18,8 C 25,0 C 17,2 C 74 % 1025,4 hPa 0,0 l/m 2 min 0 min 470 W/m 6,4 km/h (2 Bft) 97,87 %
08.08.2022 09:22 18,9 C 25,0 C 17,2 C 74 % 1025,4 hPa 0,0 l/m 2 min 0 min 475 W/m 6,4 km/h (2 Bft) 97,87 %
08.08.2022 09:26 19,3 C 26,1 C 17,8 C 73 % 1025,5 hPa 0,0 l/m 4 min 0 min 484 W/m 6,4 km/h (2 Bft) 97,85 %
08.08.2022 09:28 19,6 C 26,1 C 17,8 C 73 % 1025,5 hPa 0,0 l/m 2 min 0 min 494 W/m 6,4 km/h (2 Bft) 97,87 %
08.08.2022 09:30 19,8 C 26,1 C 18,3 C 72 % 1025,5 hPa 0,0 l/m 2 min 0 min 495 W/m 6,4 km/h (2 Bft) 95,74 %
08.08.2022 09:32 19,9 C 26,1 C 18,3 C 72 % 1025,5 hPa 0,0 l/m 2 min 0 min 498 W/m 9,7 km/h (2 Bft) 97,87 %
08.08.2022 09:34 20,1 C 26,1 C 18,3 C 71 % 1025,5 hPa 0,0 l/m 2 min 0 min 505 W/m 12,9 km/h (3 Bft) 97,87 %
08.08.2022 09:36 20,3 C 26,1 C 17,8 C 70 % 1025,5 hPa 0,0 l/m 2 min 0 min 507 W/m 12,9 km/h (3 Bft) 97,87 %
08.08.2022 09:38 20,3 C 25,0 C 17,8 C 69 % 1025,5 hPa 0,0 l/m 2 min 0 min 512 W/m 16,1 km/h (3 Bft) 97,83 %
08.08.2022 09:40 20,4 C 25,6 C 17,8 C 69 % 1025,5 hPa 0,0 l/m 2 min 0 min 516 W/m 6,4 km/h (2 Bft) 97,87 %
08.08.2022 09:42 20,4 C 25,6 C 17,8 C 69 % 1025,6 hPa 0,0 l/m 2 min 0 min 512 W/m 9,7 km/h (2 Bft) 97,87 %
08.08.2022 09:44 20,5 C 25,6 C 17,2 C 69 % 1025,6 hPa 0,0 l/m 2 min 0 min 500 W/m 12,9 km/h (3 Bft) 95,74 %
08.08.2022 09:46 20,6 C 25,6 C 17,2 C 69 % 1025,6 hPa 0,0 l/m 2 min 0 min 538 W/m 9,7 km/h (2 Bft) 97,87 %
08.08.2022 09:48 20,6 C 25,0 C 16,7 C 68 % 1025,6 hPa 0,0 l/m 2 min 0 min 514 W/m 12,9 km/h (3 Bft) 100,00 %
08.08.2022 09:50 20,7 C 24,4 C 16,7 C 68 % 1025,6 hPa 0,0 l/m 2 min 0 min 523 W/m 19,3 km/h (3 Bft) 100,00 %
08.08.2022 09:52 20,7 C 23,9 C 16,7 C 67 % 1025,6 hPa 0,0 l/m 2 min 0 min 500 W/m 12,9 km/h (3 Bft) 100,00 %
08.08.2022 09:54 20,7 C 23,9 C 16,7 C 68 % 1025,5 hPa 0,0 l/m 2 min 0 min 462 W/m 19,3 km/h (3 Bft) 100,00 %
08.08.2022 09:56 20,8 C 23,9 C 16,7 C 67 % 1025,6 hPa 0,0 l/m 2 min 0 min 487 W/m 6,4 km/h (2 Bft) 100,00 %
08.08.2022 09:58 20,8 C 23,9 C 16,1 C 67 % 1025,6 hPa 0,0 l/m 2 min 0 min 524 W/m 6,4 km/h (2 Bft) 100,00 %
08.08.2022 10:00 20,8 C 24,4 C 16,1 C 67 % 1025,6 hPa 0,0 l/m 2 min 0 min 535 W/m 6,4 km/h (2 Bft) 100,00 %
08.08.2022 10:02 20,8 C 23,9 C 16,1 C 67 % 1025,6 hPa 0,0 l/m 2 min 0 min 522 W/m 16,1 km/h (3 Bft) 95,65 %
08.08.2022 10:04 20,8 C 23,9 C 16,1 C 67 % 1025,6 hPa 0,0 l/m 2 min 0 min 541 W/m 12,9 km/h (3 Bft) 100,00 %
08.08.2022 10:06 20,8 C 23,3 C 16,1 C 67 % 1025,6 hPa 0,0 l/m 2 min 0 min 520 W/m 9,7 km/h (2 Bft) 97,87 %
08.08.2022 10:08 20,8 C 23,3 C 16,1 C 67 % 1025,6 hPa 0,0 l/m 2 min 0 min 538 W/m 16,1 km/h (3 Bft) 100,00 %
08.08.2022 10:10 20,8 C 23,3 C 16,1 C 67 % 1025,7 hPa 0,0 l/m 2 min 0 min 558 W/m 22,5 km/h (4 Bft) 97,87 %
08.08.2022 10:12 20,8 C 23,3 C 16,1 C 67 % 1025,7 hPa 0,0 l/m 2 min 0 min 569 W/m 12,9 km/h (3 Bft) 100,00 %
08.08.2022 10:14 20,9 C 23,3 C 16,1 C 67 % 1025,7 hPa 0,0 l/m 2 min 0 min 521 W/m 9,7 km/h (2 Bft) 100,00 %
08.08.2022 10:16 20,9 C 23,9 C 16,1 C 68 % 1025,7 hPa 0,0 l/m 2 min 0 min 512 W/m 6,4 km/h (2 Bft) 100,00 %
08.08.2022 10:18 20,9 C 23,9 C 16,1 C 68 % 1025,7 hPa 0,0 l/m 2 min 0 min 553 W/m 9,7 km/h (2 Bft) 100,00 %
08.08.2022 10:20 20,9 C 23,3 C 16,1 C 67 % 1025,7 hPa 0,0 l/m 2 min 0 min 552 W/m 6,4 km/h (2 Bft) 100,00 %
08.08.2022 10:22 20,9 C 23,3 C 16,1 C 67 % 1025,7 hPa 0,0 l/m 2 min 0 min 542 W/m 6,4 km/h (2 Bft) 100,00 %
08.08.2022 10:24 20,9 C 23,3 C 16,1 C 66 % 1025,7 hPa 0,0 l/m 2 min 0 min 592 W/m 12,9 km/h (3 Bft) 100,00 %
08.08.2022 10:26 20,9 C 22,8 C 16,1 C 65 % 1025,7 hPa 0,0 l/m 2 min 0 min 634 W/m 16,1 km/h (3 Bft) 100,00 %
08.08.2022 10:28 20,9 C 22,8 C 16,1 C 66 % 1025,7 hPa 0,0 l/m 2 min 0 min 652 W/m 16,1 km/h (3 Bft) 100,00 %
08.08.2022 10:30 20,9 C 23,3 C 16,7 C 65 % 1025,7 hPa 0,0 l/m 2 min 0 min 653 W/m 12,9 km/h (3 Bft) 100,00 %
08.08.2022 10:32 20,9 C 22,8 C 16,1 C 65 % 1025,7 hPa 0,0 l/m 2 min 0 min 652 W/m 16,1 km/h (3 Bft) 97,87 %
08.08.2022 10:34 20,9 C 22,8 C 16,7 C 65 % 1025,7 hPa 0,0 l/m 2 min 0 min 671 W/m 6,4 km/h (2 Bft) 97,87 %
08.08.2022 10:36 20,9 C 22,8 C 16,7 C 65 % 1025,7 hPa 0,0 l/m 2 min 0 min 652 W/m 19,3 km/h (3 Bft) 95,74 %
08.08.2022 10:38 21,0 C 22,8 C 16,7 C 65 % 1025,7 hPa 0,0 l/m 2 min 0 min 566 W/m 12,9 km/h (3 Bft) 97,83 %
08.08.2022 10:40 21,1 C 22,8 C 16,7 C 65 % 1025,7 hPa 0,0 l/m 2 min 0 min 571 W/m 16,1 km/h (3 Bft) 97,87 %
08.08.2022 10:42 21,2 C 22,8 C 16,7 C 65 % 1025,7 hPa 0,0 l/m 2 min 0 min 562 W/m 19,3 km/h (3 Bft) 95,74 %
08.08.2022 10:44 21,2 C 22,2 C 16,7 C 65 % 1025,8 hPa 0,0 l/m 2 min 0 min 609 W/m 12,9 km/h (3 Bft) 97,87 %
08.08.2022 10:46 21,3 C 22,2 C 16,7 C 65 % 1025,7 hPa 0,0 l/m 2 min 0 min 600 W/m 9,7 km/h (2 Bft) 95,74 %
08.08.2022 10:48 21,3 C 22,2 C 17,2 C 65 % 1025,8 hPa 0,0 l/m 2 min 0 min 618 W/m 9,7 km/h (2 Bft) 97,87 %
08.08.2022 10:50 21,4 C 22,2 C 17,2 C 65 % 1025,8 hPa 0,0 l/m 2 min 0 min 628 W/m 16,1 km/h (3 Bft) 97,83 %
08.08.2022 10:52 21,4 C 22,2 C 17,2 C 65 % 1025,8 hPa 0,0 l/m 2 min 0 min 617 W/m 12,9 km/h (3 Bft) 97,87 %
08.08.2022 10:54 21,5 C 22,2 C 17,2 C 65 % 1025,8 hPa 0,0 l/m 2 min 0 min 657 W/m 16,1 km/h (3 Bft) 97,87 %
08.08.2022 10:56 21,6 C 21,7 C 17,2 C 64 % 1025,7 hPa 0,0 l/m 2 min 0 min 611 W/m 12,9 km/h (3 Bft) 97,87 %
08.08.2022 10:58 21,6 C 22,2 C 17,2 C 64 % 1025,8 hPa 0,0 l/m 2 min 0 min 636 W/m 12,9 km/h (3 Bft) 95,74 %
08.08.2022 11:00 21,7 C 22,2 C 17,2 C 63 % 1025,8 hPa 0,0 l/m 2 min 0 min 625 W/m 16,1 km/h (3 Bft) 97,87 %
08.08.2022 11:02 21,8 C 22,2 C 17,8 C 63 % 1025,8 hPa 0,0 l/m 2 min 0 min 669 W/m 16,1 km/h (3 Bft) 97,83 %
08.08.2022 11:04 21,8 C 22,2 C 17,8 C 63 % 1025,8 hPa 0,0 l/m 2 min 0 min 721 W/m 16,1 km/h (3 Bft) 97,87 %
08.08.2022 11:06 21,9 C 22,8 C 17,8 C 63 % 1025,7 hPa 0,0 l/m 2 min 0 min 721 W/m 12,9 km/h (3 Bft) 97,87 %
08.08.2022 11:08 21,9 C 22,8 C 17,8 C 63 % 1025,7 hPa 0,0 l/m 2 min 0 min 690 W/m 6,4 km/h (2 Bft) 95,74 %
08.08.2022 11:10 21,9 C 22,2 C 17,8 C 62 % 1025,7 hPa 0,0 l/m 2 min 0 min 674 W/m 16,1 km/h (3 Bft) 97,87 %
08.08.2022 11:12 22,0 C 22,2 C 17,8 C 63 % 1025,7 hPa 0,0 l/m 2 min 0 min 602 W/m 16,1 km/h (3 Bft) 97,87 %
08.08.2022 11:14 22,1 C 22,8 C 17,8 C 63 % 1025,7 hPa 0,0 l/m 2 min 0 min 565 W/m 12,9 km/h (3 Bft) 97,83 %
08.08.2022 11:16 22,1 C 22,2 C 17,8 C 62 % 1025,7 hPa 0,0 l/m 2 min 0 min 642 W/m 16,1 km/h (3 Bft) 97,87 %
08.08.2022 11:18 22,1 C 22,2 C 17,8 C 61 % 1025,8 hPa 0,0 l/m 2 min 0 min 635 W/m 12,9 km/h (3 Bft) 97,87 %
08.08.2022 11:20 22,1 C 22,2 C 17,8 C 61 % 1025,7 hPa 0,0 l/m 2 min 0 min 662 W/m 12,9 km/h (3 Bft) 97,87 %
08.08.2022 11:22 22,1 C 22,8 C 17,8 C 62 % 1025,8 hPa 0,0 l/m 2 min 0 min 732 W/m 12,9 km/h (3 Bft) 95,74 %
08.08.2022 11:24 22,2 C 22,8 C 17,8 C 62 % 1025,7 hPa 0,0 l/m 2 min 0 min 695 W/m 12,9 km/h (3 Bft) 97,87 %
08.08.2022 11:26 22,2 C 22,8 C 17,8 C 62 % 1025,8 hPa 0,0 l/m 2 min 0 min 607 W/m 12,9 km/h (3 Bft) 93,48 %
08.08.2022 11:28 22,3 C 23,3 C 17,8 C 61 % 1025,8 hPa 0,0 l/m 2 min 0 min 569 W/m 12,9 km/h (3 Bft) 97,87 %
08.08.2022 11:30 22,4 C 23,3 C 17,8 C 61 % 1025,8 hPa 0,0 l/m 2 min 0 min 682 W/m 12,9 km/h (3 Bft) 97,87 %
08.08.2022 11:32 22,4 C 23,3 C 18,3 C 61 % 1025,8 hPa 0,0 l/m 2 min 0 min 711 W/m 16,1 km/h (3 Bft) 97,87 %
08.08.2022 11:34 22,6 C 23,9 C 18,3 C 60 % 1025,8 hPa 0,0 l/m 2 min 0 min 736 W/m 12,9 km/h (3 Bft) 97,87 %
08.08.2022 11:36 22,6 C 24,4 C 18,3 C 60 % 1025,8 hPa 0,0 l/m 2 min 0 min 744 W/m 9,7 km/h (2 Bft) 97,87 %
08.08.2022 11:38 22,6 C 25,0 C 18,3 C 61 % 1025,8 hPa 0,0 l/m 2 min 0 min 750 W/m 6,4 km/h (2 Bft) 97,87 %
08.08.2022 11:40 22,7 C 25,6 C 18,3 C 60 % 1025,7 hPa 0,0 l/m 2 min 0 min 728 W/m 12,9 km/h (3 Bft) 97,83 %
08.08.2022 11:42 22,8 C 25,6 C 18,9 C 61 % 1025,8 hPa 0,0 l/m 2 min 0 min 749 W/m 19,3 km/h (3 Bft) 97,87 %
08.08.2022 11:44 22,9 C 25,6 C 18,9 C 60 % 1025,7 hPa 0,0 l/m 2 min 0 min 762 W/m 6,4 km/h (2 Bft) 95,74 %
08.08.2022 11:46 23,1 C 25,6 C 18,9 C 60 % 1025,7 hPa 0,0 l/m 2 min 0 min 756 W/m 12,9 km/h (3 Bft) 95,74 %
08.08.2022 11:48 23,2 C 26,1 C 18,9 C 60 % 1025,8 hPa 0,0 l/m 2 min 0 min 773 W/m 6,4 km/h (2 Bft) 97,87 %
08.08.2022 11:50 23,3 C 26,1 C 18,9 C 59 % 1025,7 hPa 0,0 l/m 2 min 0 min 774 W/m 6,4 km/h (2 Bft) 100,00 %
08.08.2022 11:52 23,4 C 26,1 C 18,9 C 58 % 1025,7 hPa 0,0 l/m 2 min 0 min 771 W/m 6,4 km/h (2 Bft) 100,00 %
08.08.2022 11:54 23,6 C 26,1 C 18,9 C 58 % 1025,6 hPa 0,0 l/m 2 min 0 min 798 W/m 6,4 km/h (2 Bft) 95,74 %
08.08.2022 11:56 23,7 C 26,1 C 18,9 C 58 % 1025,7 hPa 0,0 l/m 2 min 0 min 767 W/m 22,5 km/h (4 Bft) 100,00 %
08.08.2022 11:58 23,7 C 26,1 C 18,9 C 57 % 1025,6 hPa 0,0 l/m 2 min 0 min 751 W/m 12,9 km/h (3 Bft) 100,00 %
08.08.2022 12:00 23,8 C 26,1 C 19,4 C 57 % 1025,7 hPa 0,0 l/m 2 min 0 min 776 W/m 9,7 km/h (2 Bft) 100,00 %
08.08.2022 12:02 23,7 C 25,6 C 19,4 C 57 % 1025,8 hPa 0,0 l/m 2 min 0 min 786 W/m 12,9 km/h (3 Bft) 100,00 %
08.08.2022 12:04 23,6 C 25,6 C 20,0 C 57 % 1025,7 hPa 0,0 l/m 2 min 0 min 790 W/m 16,1 km/h (3 Bft) 97,87 %
08.08.2022 12:08 23,6 C 26,1 C 20,6 C 57 % 1025,7 hPa 0,0 l/m 4 min 0 min 819 W/m 16,1 km/h (3 Bft) 98,02 %
08.08.2022 12:10 23,6 C 26,1 C 20,6 C 58 % 1025,7 hPa 0,0 l/m 2 min 0 min 815 W/m 12,9 km/h (3 Bft) 95,74 %
08.08.2022 12:12 23,7 C 26,1 C 21,1 C 56 % 1025,7 hPa 0,0 l/m 2 min 0 min 818 W/m 12,9 km/h (3 Bft) 97,87 %
08.08.2022 12:14 23,8 C 26,1 C 21,7 C 56 % 1025,7 hPa 0,0 l/m 2 min 0 min 819 W/m 16,1 km/h (3 Bft) 97,87 %
08.08.2022 12:16 23,8 C 26,7 C 22,2 C 57 % 1025,7 hPa 0,0 l/m 2 min 0 min 823 W/m 9,7 km/h (2 Bft) 97,83 %
08.08.2022 12:18 23,9 C 26,7 C 22,8 C 57 % 1025,7 hPa 0,0 l/m 2 min 0 min 825 W/m 16,1 km/h (3 Bft) 97,87 %
08.08.2022 12:20 23,9 C 26,1 C 22,8 C 55 % 1025,7 hPa 0,0 l/m 2 min 0 min 828 W/m 6,4 km/h (2 Bft) 97,87 %
08.08.2022 12:22 23,9 C 26,7 C 23,9 C 56 % 1025,7 hPa 0,0 l/m 2 min 0 min 826 W/m 6,4 km/h (2 Bft) 96,00 %
08.08.2022 12:24 24,1 C 27,2 C 25,0 C 56 % 1025,7 hPa 0,0 l/m 2 min 0 min 832 W/m 9,7 km/h (2 Bft) 97,87 %
08.08.2022 12:26 24,2 C 27,2 C 25,6 C 56 % 1025,7 hPa 0,0 l/m 2 min 0 min 838 W/m 9,7 km/h (2 Bft) 97,83 %
08.08.2022 12:28 24,3 C 27,2 C 25,0 C 55 % 1025,7 hPa 0,0 l/m 2 min 0 min 843 W/m 19,3 km/h (3 Bft) 95,74 %
08.08.2022 12:30 24,3 C 27,8 C 25,6 C 56 % 1025,6 hPa 0,0 l/m 2 min 0 min 843 W/m 9,7 km/h (2 Bft) 97,87 %
08.08.2022 12:32 24,4 C 27,2 C 26,1 C 55 % 1025,6 hPa 0,0 l/m 2 min 0 min 839 W/m 16,1 km/h (3 Bft) 97,92 %
08.08.2022 12:34 24,4 C 27,2 C 26,1 C 55 % 1025,6 hPa 0,0 l/m 2 min 0 min 841 W/m 12,9 km/h (3 Bft) 97,87 %
08.08.2022 12:36 24,4 C 26,7 C 26,1 C 54 % 1025,6 hPa 0,0 l/m 2 min 0 min 824 W/m 9,7 km/h (2 Bft) 95,74 %
08.08.2022 12:38 24,4 C 26,7 C 25,6 C 54 % 1025,6 hPa 0,0 l/m 2 min 0 min 835 W/m 9,7 km/h (2 Bft) 97,87 %
08.08.2022 12:40 24,5 C 27,2 C 24,4 C 55 % 1025,6 hPa 0,0 l/m 2 min 0 min 822 W/m 9,7 km/h (2 Bft) 97,83 %
08.08.2022 12:42 24,6 C 27,8 C 23,3 C 54 % 1025,6 hPa 0,0 l/m 2 min 0 min 835 W/m 12,9 km/h (3 Bft) 97,87 %
08.08.2022 12:44 24,7 C 27,2 C 22,8 C 53 % 1025,6 hPa 0,0 l/m 2 min 0 min 852 W/m 12,9 km/h (3 Bft) 97,87 %
08.08.2022 12:46 24,7 C 27,2 C 22,8 C 53 % 1025,5 hPa 0,0 l/m 2 min 0 min 850 W/m 19,3 km/h (3 Bft) 97,87 %
08.08.2022 12:48 24,8 C 27,2 C 22,2 C 54 % 1025,5 hPa 0,0 l/m 2 min 0 min 855 W/m 16,1 km/h (3 Bft) 97,87 %
08.08.2022 12:50 24,9 C 27,2 C 21,7 C 54 % 1025,6 hPa 0,0 l/m 2 min 0 min 859 W/m 16,1 km/h (3 Bft) 95,74 %
08.08.2022 12:52 25,0 C 27,2 C 21,7 C 53 % 1025,6 hPa 0,0 l/m 2 min 0 min 859 W/m 9,7 km/h (2 Bft) 97,14 %
08.08.2022 12:54 25,0 C 27,2 C 21,1 C 53 % 1025,5 hPa 0,0 l/m 2 min 0 min 859 W/m 19,3 km/h (3 Bft) 96,61 %
08.08.2022 12:56 25,0 C 27,2 C 20,6 C 52 % 1025,5 hPa 0,0 l/m 2 min 0 min 861 W/m 12,9 km/h (3 Bft) 97,87 %
08.08.2022 12:58 25,1 C 27,2 C 20,6 C 52 % 1025,5 hPa 0,0 l/m 2 min 0 min 864 W/m 12,9 km/h (3 Bft) 97,14 %
08.08.2022 13:00 25,1 C 26,7 C 20,6 C 52 % 1025,4 hPa 0,0 l/m 2 min 0 min 866 W/m 12,9 km/h (3 Bft) 94,83 %
08.08.2022 13:02 25,2 C 26,7 C 20,6 C 52 % 1025,4 hPa 0,0 l/m 2 min 0 min 865 W/m 9,7 km/h (2 Bft) 97,87 %
08.08.2022 13:04 25,2 C 27,2 C 20,6 C 53 % 1025,4 hPa 0,0 l/m 2 min 0 min 868 W/m 6,4 km/h (2 Bft) 97,14 %
08.08.2022 13:06 25,2 C 26,7 C 20,0 C 52 % 1025,4 hPa 0,0 l/m 2 min 0 min 864 W/m 9,7 km/h (2 Bft) 98,31 %
08.08.2022 13:08 25,3 C 26,1 C 20,0 C 52 % 1025,5 hPa 0,0 l/m 2 min 0 min 859 W/m 12,9 km/h (3 Bft) 97,87 %
08.08.2022 13:10 25,2 C 26,1 C 20,0 C 52 % 1025,4 hPa 0,0 l/m 2 min 0 min 866 W/m 12,9 km/h (3 Bft) 97,14 %
08.08.2022 13:12 25,3 C 26,1 C 20,0 C 52 % 1025,4 hPa 0,0 l/m 2 min 0 min 871 W/m 12,9 km/h (3 Bft) 97,87 %
08.08.2022 13:14 25,3 C 26,1 C 20,0 C 52 % 1025,4 hPa 0,0 l/m 2 min 0 min 872 W/m 9,7 km/h (2 Bft) 97,83 %
08.08.2022 13:16 25,4 C 26,1 C 20,0 C 52 % 1025,4 hPa 0,0 l/m 2 min 0 min 872 W/m 16,1 km/h (3 Bft) 95,74 %
08.08.2022 13:18 25,4 C 26,1 C 20,0 C 52 % 1025,4 hPa 0,0 l/m 2 min 0 min 866 W/m 9,7 km/h (2 Bft) 93,62 %
08.08.2022 13:20 25,4 C 26,1 C 20,0 C 52 % 1025,4 hPa 0,0 l/m 2 min 0 min 866 W/m 12,9 km/h (3 Bft) 97,87 %
08.08.2022 13:22 25,6 C 26,1 C 20,0 C 53 % 1025,4 hPa 0,0 l/m 2 min 0 min 872 W/m 16,1 km/h (3 Bft) 95,74 %
08.08.2022 13:24 25,6 C 26,1 C 20,0 C 53 % 1025,4 hPa 0,0 l/m 2 min 0 min 875 W/m 12,9 km/h (3 Bft) 95,74 %
08.08.2022 13:26 25,6 C 26,1 C 20,0 C 52 % 1025,3 hPa 0,0 l/m 2 min 0 min 870 W/m 19,3 km/h (3 Bft) 95,65 %
08.08.2022 13:28 25,6 C 26,1 C 20,0 C 52 % 1025,3 hPa 0,0 l/m 2 min 0 min 868 W/m 12,9 km/h (3 Bft) 95,74 %
08.08.2022 13:30 25,6 C 26,1 C 20,0 C 52 % 1025,3 hPa 0,0 l/m 2 min 0 min 863 W/m 16,1 km/h (3 Bft) 95,74 %
08.08.2022 13:32 25,6 C 26,7 C 20,0 C 52 % 1025,3 hPa 0,0 l/m 2 min 0 min 870 W/m 6,4 km/h (2 Bft) 95,74 %
08.08.2022 13:34 25,6 C 26,7 C 20,0 C 52 % 1025,3 hPa 0,0 l/m 2 min 0 min 876 W/m 19,3 km/h (3 Bft) 93,62 %
08.08.2022 13:36 25,6 C 26,1 C 20,0 C 52 % 1025,3 hPa 0,0 l/m 2 min 0 min 883 W/m 16,1 km/h (3 Bft) 95,74 %
08.08.2022 13:38 25,6 C 26,7 C 20,0 C 53 % 1025,3 hPa 0,0 l/m 2 min 0 min 877 W/m 9,7 km/h (2 Bft) 95,65 %
08.08.2022 13:40 25,7 C 27,2 C 20,6 C 53 % 1025,3 hPa 0,0 l/m 2 min 0 min 876 W/m 12,9 km/h (3 Bft) 95,74 %
08.08.2022 13:42 25,7 C 27,2 C 20,6 C 52 % 1025,3 hPa 0,0 l/m 2 min 0 min 861 W/m 12,9 km/h (3 Bft) 97,87 %
08.08.2022 13:44 25,7 C 27,8 C 20,6 C 53 % 1025,4 hPa 0,0 l/m 2 min 0 min 870 W/m 12,9 km/h (3 Bft) 97,87 %
08.08.2022 13:46 25,8 C 28,3 C 20,6 C 53 % 1025,4 hPa 0,0 l/m 2 min 0 min 868 W/m 9,7 km/h (2 Bft) 95,74 %
08.08.2022 13:48 25,9 C 28,3 C 20,6 C 52 % 1025,4 hPa 0,0 l/m 2 min 0 min 865 W/m 12,9 km/h (3 Bft) 100,00 %
08.08.2022 13:50 25,8 C 28,3 C 20,6 C 51 % 1025,3 hPa 0,0 l/m 2 min 0 min 841 W/m 16,1 km/h (3 Bft) 97,87 %
08.08.2022 13:52 25,8 C 27,8 C 20,6 C 52 % 1025,3 hPa 0,0 l/m 2 min 0 min 883 W/m 19,3 km/h (3 Bft) 100,00 %
08.08.2022 13:54 25,9 C 28,3 C 20,6 C 52 % 1025,3 hPa 0,0 l/m 2 min 0 min 887 W/m 9,7 km/h (2 Bft) 98,04 %
08.08.2022 13:56 26,0 C 28,3 C 20,6 C 53 % 1025,3 hPa 0,0 l/m 2 min 0 min 883 W/m 12,9 km/h (3 Bft) 100,00 %
08.08.2022 13:58 26,1 C 28,9 C 21,1 C 52 % 1025,3 hPa 0,0 l/m 2 min 0 min 905 W/m 19,3 km/h (3 Bft) 100,00 %
08.08.2022 14:00 26,1 C 28,3 C 20,6 C 51 % 1025,3 hPa 0,0 l/m 2 min 0 min 926 W/m 19,3 km/h (3 Bft) 100,00 %
08.08.2022 14:02 26,0 C 28,3 C 20,6 C 52 % 1025,3 hPa 0,0 l/m 2 min 0 min 944 W/m 12,9 km/h (3 Bft) 100,00 %
08.08.2022 14:04 26,1 C 29,4 C 21,1 C 52 % 1025,3 hPa 0,0 l/m 2 min 0 min 937 W/m 12,9 km/h (3 Bft) 100,00 %
08.08.2022 14:06 26,2 C 29,4 C 21,1 C 52 % 1025,3 hPa 0,0 l/m 2 min 0 min 937 W/m 6,4 km/h (2 Bft) 100,00 %
08.08.2022 14:08 26,2 C 28,9 C 21,1 C 51 % 1025,3 hPa 0,0 l/m 2 min 0 min 936 W/m 16,1 km/h (3 Bft) 100,00 %
08.08.2022 14:10 26,1 C 29,4 C 21,1 C 51 % 1025,3 hPa 0,0 l/m 2 min 0 min 912 W/m 9,7 km/h (2 Bft) 97,87 %
08.08.2022 14:12 26,2 C 29,4 C 21,1 C 52 % 1025,3 hPa 0,0 l/m 2 min 0 min 899 W/m 19,3 km/h (3 Bft) 100,00 %
08.08.2022 14:14 26,2 C 29,4 C 21,1 C 52 % 1025,2 hPa 0,0 l/m 2 min 0 min 924 W/m 22,5 km/h (4 Bft) 100,00 %
08.08.2022 14:16 26,3 C 28,9 C 21,1 C 53 % 1025,2 hPa 0,0 l/m 2 min 0 min 935 W/m 32,2 km/h (5 Bft) 100,00 %
08.08.2022 14:18 26,3 C 28,9 C 21,1 C 52 % 1025,3 hPa 0,0 l/m 2 min 0 min 930 W/m 12,9 km/h (3 Bft) 100,00 %
08.08.2022 14:20 26,4 C 29,4 C 21,1 C 52 % 1025,2 hPa 0,0 l/m 2 min 0 min 896 W/m 12,9 km/h (3 Bft) 100,00 %
08.08.2022 14:22 26,4 C 28,3 C 21,1 C 51 % 1025,2 hPa 0,0 l/m 2 min 0 min 941 W/m 22,5 km/h (4 Bft) 100,00 %
08.08.2022 14:24 26,3 C 27,2 C 20,6 C 52 % 1025,3 hPa 0,0 l/m 2 min 0 min 691 W/m 12,9 km/h (3 Bft) 100,00 %
08.08.2022 14:26 26,0 C 26,7 C 20,6 C 52 % 1025,2 hPa 0,0 l/m 2 min 0 min 524 W/m 22,5 km/h (4 Bft) 100,00 %
08.08.2022 14:28 25,9 C 27,2 C 20,6 C 53 % 1025,1 hPa 0,0 l/m 2 min 0 min 823 W/m 9,7 km/h (2 Bft) 100,00 %
08.08.2022 14:30 25,9 C 27,8 C 20,6 C 53 % 1025,1 hPa 0,0 l/m 2 min 0 min 800 W/m 16,1 km/h (3 Bft) 100,00 %
08.08.2022 14:32 26,0 C 28,3 C 20,6 C 53 % 1025,2 hPa 0,0 l/m 2 min 0 min 862 W/m 19,3 km/h (3 Bft) 97,87 %
08.08.2022 14:34 26,0 C 28,3 C 20,6 C 53 % 1025,2 hPa 0,0 l/m 2 min 0 min 880 W/m 22,5 km/h (4 Bft) 100,00 %
08.08.2022 14:36 26,0 C 27,2 C 20,6 C 52 % 1025,2 hPa 0,0 l/m 2 min 0 min 877 W/m 19,3 km/h (3 Bft) 100,00 %
08.08.2022 14:38 25,9 C 26,7 C 20,6 C 52 % 1025,1 hPa 0,0 l/m 0 min 0 min 279 W/m 22,5 km/h (4 Bft) 100,00 %
08.08.2022 14:40 25,8 C 27,2 C 20,6 C 53 % 1025,1 hPa 0,0 l/m 2 min 0 min 842 W/m 12,9 km/h (3 Bft) 97,87 %
08.08.2022 14:42 25,9 C 27,8 C 20,6 C 53 % 1025,1 hPa 0,0 l/m 2 min 0 min 841 W/m 12,9 km/h (3 Bft) 100,00 %
08.08.2022 14:44 26,0 C 28,9 C 21,1 C 53 % 1025,1 hPa 0,0 l/m 2 min 0 min 848 W/m 12,9 km/h (3 Bft) 97,87 %
08.08.2022 14:46 26,1 C 28,3 C 20,6 C 52 % 1025,2 hPa 0,0 l/m 2 min 0 min 851 W/m 19,3 km/h (3 Bft) 100,00 %
08.08.2022 14:48 26,2 C 28,3 C 20,6 C 51 % 1025,2 hPa 0,0 l/m 2 min 0 min 839 W/m 29,0 km/h (5 Bft) 97,87 %
08.08.2022 14:50 26,2 C 28,9 C 20,6 C 51 % 1025,1 hPa 0,0 l/m 2 min 0 min 846 W/m 16,1 km/h (3 Bft) 100,00 %
08.08.2022 14:52 26,2 C 28,3 C 20,6 C 52 % 1025,2 hPa 0,0 l/m 2 min 0 min 849 W/m 12,9 km/h (3 Bft) 100,00 %
08.08.2022 14:54 26,1 C 28,3 C 20,6 C 51 % 1025,1 hPa 0,0 l/m 2 min 0 min 850 W/m 16,1 km/h (3 Bft) 100,00 %
08.08.2022 14:56 26,2 C 28,9 C 20,6 C 52 % 1025,1 hPa 0,0 l/m 2 min 0 min 846 W/m 16,1 km/h (3 Bft) 100,00 %
08.08.2022 14:58 26,1 C 28,9 C 20,6 C 51 % 1025,0 hPa 0,0 l/m 2 min 0 min 831 W/m 12,9 km/h (3 Bft) 97,87 %
08.08.2022 15:00 26,2 C 29,4 C 21,1 C 52 % 1025,1 hPa 0,0 l/m 2 min 0 min 836 W/m 16,1 km/h (3 Bft) 100,00 %
08.08.2022 15:02 26,3 C 30,0 C 21,1 C 52 % 1025,1 hPa 0,0 l/m 2 min 0 min 831 W/m 9,7 km/h (2 Bft) 97,14 %
08.08.2022 15:04 26,4 C 30,6 C 21,1 C 51 % 1025,1 hPa 0,0 l/m 2 min 0 min 830 W/m 16,1 km/h (3 Bft) 97,87 %
08.08.2022 15:06 26,5 C 30,6 C 21,1 C 50 % 1025,0 hPa 0,0 l/m 2 min 0 min 825 W/m 12,9 km/h (3 Bft) 98,31 %
08.08.2022 15:08 26,6 C 30,6 C 21,1 C 51 % 1025,0 hPa 0,0 l/m 2 min 0 min 823 W/m 16,1 km/h (3 Bft) 97,87 %
08.08.2022 15:10 26,6 C 29,4 C 21,1 C 50 % 1025,0 hPa 0,0 l/m 2 min 0 min 824 W/m 35,4 km/h (5 Bft) 100,00 %
08.08.2022 15:12 26,6 C 29,4 C 21,1 C 50 % 1025,1 hPa 0,0 l/m 2 min 0 min 816 W/m 16,1 km/h (3 Bft) 96,23 %
08.08.2022 15:14 26,6 C 30,0 C 21,1 C 50 % 1025,1 hPa 0,0 l/m 2 min 0 min 816 W/m 16,1 km/h (3 Bft) 95,74 %
08.08.2022 15:16 26,6 C 29,4 C 21,1 C 50 % 1025,0 hPa 0,0 l/m 2 min 0 min 811 W/m 19,3 km/h (3 Bft) 95,65 %
08.08.2022 15:18 26,6 C 29,4 C 21,1 C 49 % 1024,9 hPa 0,0 l/m 2 min 0 min 810 W/m 12,9 km/h (3 Bft) 95,74 %
08.08.2022 15:20 26,7 C 30,0 C 21,1 C 49 % 1024,9 hPa 0,0 l/m 2 min 0 min 807 W/m 19,3 km/h (3 Bft) 93,62 %
08.08.2022 15:22 26,6 C 28,9 C 21,1 C 49 % 1024,9 hPa 0,0 l/m 2 min 0 min 805 W/m 12,9 km/h (3 Bft) 95,74 %
08.08.2022 15:24 26,6 C 28,3 C 21,1 C 50 % 1024,9 hPa 0,0 l/m 2 min 0 min 811 W/m 19,3 km/h (3 Bft) 95,74 %
08.08.2022 15:26 26,6 C 28,9 C 21,1 C 50 % 1024,9 hPa 0,0 l/m 2 min 0 min 798 W/m 16,1 km/h (3 Bft) 93,62 %
08.08.2022 15:28 26,6 C 28,9 C 21,1 C 49 % 1024,8 hPa 0,0 l/m 2 min 0 min 797 W/m 35,4 km/h (5 Bft) 93,48 %
08.08.2022 15:30 26,6 C 29,4 C 21,1 C 49 % 1024,9 hPa 0,0 l/m 2 min 0 min 794 W/m 22,5 km/h (4 Bft) 93,62 %
08.08.2022 15:32 26,5 C 30,0 C 21,1 C 49 % 1025,0 hPa 0,0 l/m 2 min 0 min 793 W/m 16,1 km/h (3 Bft) 93,62 %
08.08.2022 15:34 26,6 C 30,0 C 21,1 C 49 % 1024,9 hPa 0,0 l/m 2 min 0 min 802 W/m 12,9 km/h (3 Bft) 93,62 %
08.08.2022 15:36 26,6 C 28,9 C 21,1 C 49 % 1024,9 hPa 0,0 l/m 2 min 0 min 790 W/m 16,1 km/h (3 Bft) 93,10 %
08.08.2022 15:38 26,5 C 28,9 C 21,1 C 49 % 1024,9 hPa 0,0 l/m 2 min 0 min 781 W/m 19,3 km/h (3 Bft) 91,67 %
08.08.2022 15:40 26,6 C 30,0 C 21,1 C 50 % 1024,9 hPa 0,0 l/m 2 min 0 min 786 W/m 9,7 km/h (2 Bft) 93,48 %
08.08.2022 15:42 26,7 C 30,0 C 21,1 C 49 % 1024,9 hPa 0,0 l/m 2 min 0 min 781 W/m 19,3 km/h (3 Bft) 93,62 %
08.08.2022 15:44 26,7 C 30,6 C 21,7 C 49 % 1025,0 hPa 0,0 l/m 2 min 0 min 779 W/m 16,1 km/h (3 Bft) 93,62 %
08.08.2022 15:46 26,7 C 30,6 C 21,1 C 49 % 1024,9 hPa 0,0 l/m 2 min 0 min 777 W/m 16,1 km/h (3 Bft) 95,74 %
08.08.2022 15:48 26,7 C 30,6 C 21,1 C 49 % 1024,8 hPa 0,0 l/m 2 min 0 min 763 W/m 9,7 km/h (2 Bft) 95,83 %
08.08.2022 15:50 26,7 C 31,1 C 21,1 C 49 % 1024,9 hPa 0,0 l/m 2 min 0 min 764 W/m 9,7 km/h (2 Bft) 93,75 %
08.08.2022 15:52 26,7 C 30,6 C 21,1 C 48 % 1024,9 hPa 0,0 l/m 2 min 0 min 760 W/m 16,1 km/h (3 Bft) 93,62 %
08.08.2022 15:54 26,7 C 30,0 C 21,1 C 48 % 1024,8 hPa 0,0 l/m 2 min 0 min 764 W/m 12,9 km/h (3 Bft) 95,92 %
08.08.2022 15:56 26,6 C 30,0 C 21,1 C 48 % 1024,8 hPa 0,0 l/m 2 min 0 min 753 W/m 12,9 km/h (3 Bft) 95,74 %
08.08.2022 15:58 26,7 C 30,6 C 21,1 C 48 % 1024,9 hPa 0,0 l/m 2 min 0 min 748 W/m 16,1 km/h (3 Bft) 95,74 %
08.08.2022 16:00 26,7 C 30,6 C 21,1 C 48 % 1024,8 hPa 0,0 l/m 2 min 0 min 749 W/m 16,1 km/h (3 Bft) 95,74 %
08.08.2022 16:02 26,7 C 30,6 C 21,1 C 48 % 1024,8 hPa 0,0 l/m 2 min 0 min 745 W/m 12,9 km/h (3 Bft) 95,74 %
08.08.2022 16:04 26,8 C 30,0 C 21,1 C 47 % 1024,8 hPa 0,0 l/m 2 min 0 min 744 W/m 19,3 km/h (3 Bft) 97,87 %
08.08.2022 16:06 26,8 C 30,0 C 21,1 C 47 % 1024,7 hPa 0,0 l/m 2 min 0 min 738 W/m 16,1 km/h (3 Bft) 97,87 %
08.08.2022 16:08 26,8 C 30,6 C 21,1 C 48 % 1024,8 hPa 0,0 l/m 2 min 0 min 738 W/m 12,9 km/h (3 Bft) 95,74 %
08.08.2022 16:10 26,8 C 30,6 C 21,1 C 47 % 1024,9 hPa 0,0 l/m 2 min 0 min 733 W/m 16,1 km/h (3 Bft) 100,00 %
08.08.2022 16:12 26,7 C 30,6 C 21,1 C 48 % 1024,8 hPa 0,0 l/m 2 min 0 min 728 W/m 22,5 km/h (4 Bft) 97,87 %
08.08.2022 16:14 26,7 C 31,1 C 21,7 C 48 % 1024,8 hPa 0,0 l/m 2 min 0 min 723 W/m 16,1 km/h (3 Bft) 100,00 %
08.08.2022 16:16 26,7 C 31,1 C 21,7 C 48 % 1024,7 hPa 0,0 l/m 2 min 0 min 713 W/m 19,3 km/h (3 Bft) 100,00 %
08.08.2022 16:18 26,8 C 31,7 C 21,7 C 48 % 1024,7 hPa 0,0 l/m 2 min 0 min 713 W/m 12,9 km/h (3 Bft) 97,87 %
08.08.2022 16:20 26,9 C 32,2 C 21,7 C 47 % 1024,8 hPa 0,0 l/m 2 min 0 min 711 W/m 12,9 km/h (3 Bft) 100,00 %
08.08.2022 16:22 26,9 C 31,7 C 21,7 C 47 % 1024,8 hPa 0,0 l/m 2 min 0 min 711 W/m 16,1 km/h (3 Bft) 100,00 %
08.08.2022 16:24 26,9 C 31,1 C 21,7 C 47 % 1024,8 hPa 0,0 l/m 2 min 0 min 707 W/m 12,9 km/h (3 Bft) 97,87 %
08.08.2022 16:26 26,9 C 31,7 C 21,7 C 47 % 1024,8 hPa 0,0 l/m 2 min 0 min 699 W/m 12,9 km/h (3 Bft) 100,00 %
08.08.2022 16:28 26,9 C 32,2 C 21,7 C 49 % 1024,8 hPa 0,0 l/m 2 min 0 min 694 W/m 9,7 km/h (2 Bft) 100,00 %
08.08.2022 16:30 26,9 C 32,8 C 21,7 C 47 % 1024,8 hPa 0,0 l/m 2 min 0 min 685 W/m 6,4 km/h (2 Bft) 97,87 %
08.08.2022 16:32 26,9 C 32,8 C 21,7 C 47 % 1024,8 hPa 0,0 l/m 2 min 0 min 682 W/m 12,9 km/h (3 Bft) 100,00 %
08.08.2022 16:34 26,9 C 31,7 C 21,7 C 48 % 1024,8 hPa 0,0 l/m 2 min 0 min 684 W/m 19,3 km/h (3 Bft) 97,83 %
08.08.2022 16:36 26,9 C 32,8 C 21,7 C 48 % 1024,8 hPa 0,0 l/m 2 min 0 min 676 W/m 6,4 km/h (2 Bft) 100,00 %
08.08.2022 16:38 26,9 C 32,2 C 21,7 C 47 % 1024,8 hPa 0,0 l/m 2 min 0 min 674 W/m 16,1 km/h (3 Bft) 100,00 %
08.08.2022 16:40 26,9 C 32,2 C 21,7 C 47 % 1024,8 hPa 0,0 l/m 2 min 0 min 668 W/m 19,3 km/h (3 Bft) 100,00 %
08.08.2022 16:42 26,9 C 32,2 C 21,7 C 47 % 1024,8 hPa 0,0 l/m 2 min 0 min 669 W/m 19,3 km/h (3 Bft) 100,00 %
08.08.2022 16:44 26,9 C 32,2 C 21,7 C 47 % 1024,8 hPa 0,0 l/m 2 min 0 min 653 W/m 12,9 km/h (3 Bft) 100,00 %
08.08.2022 16:46 26,9 C 32,8 C 21,7 C 46 % 1024,7 hPa 0,0 l/m 2 min 0 min 651 W/m 16,1 km/h (3 Bft) 100,00 %
08.08.2022 16:48 26,9 C 32,2 C 21,7 C 47 % 1024,7 hPa 0,0 l/m 2 min 0 min 648 W/m 12,9 km/h (3 Bft) 97,87 %
08.08.2022 16:50 26,9 C 32,8 C 21,7 C 46 % 1024,7 hPa 0,0 l/m 2 min 0 min 635 W/m 16,1 km/h (3 Bft) 100,00 %
08.08.2022 16:52 27,0 C 32,2 C 21,7 C 46 % 1024,8 hPa 0,0 l/m 2 min 0 min 625 W/m 9,7 km/h (2 Bft) 100,00 %
08.08.2022 16:54 27,0 C 32,8 C 22,2 C 46 % 1024,7 hPa 0,0 l/m 2 min 0 min 628 W/m 12,9 km/h (3 Bft) 100,00 %
08.08.2022 16:56 27,1 C 33,3 C 22,2 C 46 % 1024,6 hPa 0,0 l/m 2 min 0 min 616 W/m 16,1 km/h (3 Bft) 100,00 %
08.08.2022 16:58 27,0 C 33,3 C 22,2 C 46 % 1024,7 hPa 0,0 l/m 2 min 0 min 626 W/m 16,1 km/h (3 Bft) 100,00 %
08.08.2022 17:00 26,9 C 32,8 C 22,2 C 46 % 1024,7 hPa 0,0 l/m 2 min 0 min 620 W/m 16,1 km/h (3 Bft) 100,00 %
08.08.2022 17:02 26,8 C 32,8 C 22,2 C 46 % 1024,7 hPa 0,0 l/m 2 min 0 min 617 W/m 9,7 km/h (2 Bft) 100,00 %
08.08.2022 17:04 26,9 C 32,2 C 22,2 C 46 % 1024,7 hPa 0,0 l/m 2 min 0 min 616 W/m 12,9 km/h (3 Bft) 97,87 %
08.08.2022 17:06 26,9 C 32,2 C 22,2 C 46 % 1024,8 hPa 0,0 l/m 2 min 0 min 605 W/m 16,1 km/h (3 Bft) 98,31 %
08.08.2022 17:08 26,9 C 32,8 C 22,2 C 47 % 1024,7 hPa 0,0 l/m 2 min 0 min 600 W/m 12,9 km/h (3 Bft) 97,14 %
08.08.2022 17:10 26,9 C 33,3 C 22,2 C 46 % 1024,7 hPa 0,0 l/m 2 min 0 min 598 W/m 9,7 km/h (2 Bft) 97,87 %
08.08.2022 17:12 26,9 C 33,3 C 22,2 C 46 % 1024,7 hPa 0,0 l/m 2 min 0 min 593 W/m 6,4 km/h (2 Bft) 95,74 %
08.08.2022 17:14 26,9 C 32,8 C 22,2 C 46 % 1024,6 hPa 0,0 l/m 2 min 0 min 587 W/m 25,7 km/h (4 Bft) 97,83 %
08.08.2022 17:16 26,9 C 32,8 C 22,8 C 47 % 1024,6 hPa 0,0 l/m 2 min 0 min 584 W/m 22,5 km/h (4 Bft) 97,87 %
08.08.2022 17:18 27,0 C 32,8 C 22,2 C 46 % 1024,6 hPa 0,0 l/m 2 min 0 min 576 W/m 19,3 km/h (3 Bft) 97,87 %
08.08.2022 17:20 27,1 C 33,3 C 22,8 C 46 % 1024,7 hPa 0,0 l/m 2 min 0 min 567 W/m 9,7 km/h (2 Bft) 97,87 %
08.08.2022 17:22 27,1 C 33,3 C 22,2 C 45 % 1024,6 hPa 0,0 l/m 2 min 0 min 565 W/m 9,7 km/h (2 Bft) 97,87 %
08.08.2022 17:24 27,1 C 32,8 C 22,8 C 46 % 1024,6 hPa 0,0 l/m 2 min 0 min 564 W/m 19,3 km/h (3 Bft) 97,87 %
08.08.2022 17:26 27,1 C 32,8 C 22,8 C 46 % 1024,6 hPa 0,0 l/m 2 min 0 min 554 W/m 16,1 km/h (3 Bft) 97,83 %
08.08.2022 17:28 27,1 C 33,3 C 22,8 C 47 % 1024,6 hPa 0,0 l/m 2 min 0 min 549 W/m 6,4 km/h (2 Bft) 97,87 %
08.08.2022 17:30 27,2 C 33,9 C 23,3 C 47 % 1024,6 hPa 0,0 l/m 2 min 0 min 550 W/m 16,1 km/h (3 Bft) 97,87 %
08.08.2022 17:32 27,3 C 33,3 C 22,8 C 46 % 1024,6 hPa 0,0 l/m 2 min 0 min 541 W/m 12,9 km/h (3 Bft) 98,15 %
08.08.2022 17:34 27,3 C 33,3 C 22,8 C 47 % 1024,6 hPa 0,0 l/m 2 min 0 min 535 W/m 6,4 km/h (2 Bft) 97,92 %
08.08.2022 17:36 27,4 C 33,3 C 23,3 C 46 % 1024,6 hPa 0,0 l/m 2 min 0 min 530 W/m 19,3 km/h (3 Bft) 100,00 %
08.08.2022 17:38 27,5 C 33,3 C 23,3 C 46 % 1024,6 hPa 0,0 l/m 2 min 0 min 524 W/m 9,7 km/h (2 Bft) 100,00 %
08.08.2022 17:40 27,5 C 33,9 C 23,3 C 46 % 1024,6 hPa 0,0 l/m 2 min 0 min 519 W/m 12,9 km/h (3 Bft) 100,00 %
08.08.2022 17:42 27,6 C 33,9 C 23,3 C 46 % 1024,5 hPa 0,0 l/m 2 min 0 min 515 W/m 12,9 km/h (3 Bft) 100,00 %
08.08.2022 17:44 27,6 C 33,3 C 22,8 C 45 % 1024,4 hPa 0,0 l/m 2 min 0 min 508 W/m 16,1 km/h (3 Bft) 100,00 %
08.08.2022 17:46 27,4 C 32,2 C 22,8 C 46 % 1024,4 hPa 0,0 l/m 2 min 0 min 497 W/m 9,7 km/h (2 Bft) 100,00 %
08.08.2022 17:48 27,3 C 32,2 C 22,8 C 47 % 1024,4 hPa 0,0 l/m 2 min 0 min 494 W/m 9,7 km/h (2 Bft) 100,00 %
08.08.2022 17:50 27,3 C 32,8 C 22,8 C 47 % 1024,5 hPa 0,0 l/m 2 min 0 min 491 W/m 12,9 km/h (3 Bft) 97,87 %
08.08.2022 17:52 27,1 C 32,2 C 22,8 C 48 % 1024,5 hPa 0,0 l/m 2 min 0 min 488 W/m 19,3 km/h (3 Bft) 95,65 %
08.08.2022 17:54 27,1 C 32,2 C 22,8 C 48 % 1024,5 hPa 0,0 l/m 2 min 0 min 481 W/m 19,3 km/h (3 Bft) 91,49 %
08.08.2022 17:56 27,1 C 32,2 C 22,8 C 48 % 1024,4 hPa 0,0 l/m 2 min 0 min 474 W/m 12,9 km/h (3 Bft) 97,87 %
08.08.2022 17:58 27,1 C 32,8 C 22,8 C 49 % 1024,4 hPa 0,0 l/m 2 min 0 min 471 W/m 16,1 km/h (3 Bft) 97,87 %
08.08.2022 18:00 27,1 C 32,2 C 22,8 C 48 % 1024,4 hPa 0,0 l/m 2 min 0 min 464 W/m 19,3 km/h (3 Bft) 97,87 %
08.08.2022 18:02 27,1 C 32,8 C 22,8 C 49 % 1024,4 hPa 0,0 l/m 2 min 0 min 456 W/m 9,7 km/h (2 Bft) 93,75 %
08.08.2022 18:04 27,2 C 32,8 C 23,3 C 49 % 1024,4 hPa 0,0 l/m 2 min 0 min 453 W/m 16,1 km/h (3 Bft) 97,87 %
08.08.2022 18:08 27,2 C 32,2 C 22,8 C 49 % 1024,4 hPa 0,0 l/m 4 min 0 min 445 W/m 12,9 km/h (3 Bft) 97,89 %
08.08.2022 18:10 27,2 C 32,2 C 22,8 C 49 % 1024,3 hPa 0,0 l/m 2 min 0 min 438 W/m 12,9 km/h (3 Bft) 95,65 %
08.08.2022 18:12 27,2 C 32,8 C 23,3 C 49 % 1024,4 hPa 0,0 l/m 2 min 0 min 431 W/m 19,3 km/h (3 Bft) 95,74 %
08.08.2022 18:14 27,2 C 32,2 C 22,8 C 50 % 1024,4 hPa 0,0 l/m 2 min 0 min 424 W/m 16,1 km/h (3 Bft) 97,87 %
08.08.2022 18:16 27,1 C 31,7 C 22,8 C 50 % 1024,4 hPa 0,0 l/m 2 min 0 min 417 W/m 12,9 km/h (3 Bft) 97,87 %
08.08.2022 18:18 27,0 C 31,1 C 22,8 C 50 % 1024,4 hPa 0,0 l/m 2 min 0 min 409 W/m 16,1 km/h (3 Bft) 95,74 %
08.08.2022 18:20 26,9 C 31,7 C 22,8 C 50 % 1024,3 hPa 0,0 l/m 2 min 0 min 405 W/m 12,9 km/h (3 Bft) 95,74 %
08.08.2022 18:22 26,9 C 31,7 C 22,8 C 50 % 1024,4 hPa 0,0 l/m 2 min 0 min 399 W/m 9,7 km/h (2 Bft) 95,65 %
08.08.2022 18:24 26,9 C 32,8 C 23,3 C 50 % 1024,3 hPa 0,0 l/m 2 min 0 min 392 W/m 16,1 km/h (3 Bft) 95,74 %
08.08.2022 18:26 26,9 C 32,2 C 22,8 C 50 % 1024,3 hPa 0,0 l/m 2 min 0 min 389 W/m 16,1 km/h (3 Bft) 93,62 %
08.08.2022 18:28 26,9 C 31,7 C 22,8 C 50 % 1024,3 hPa 0,0 l/m 2 min 0 min 383 W/m 16,1 km/h (3 Bft) 95,74 %
08.08.2022 18:30 26,9 C 31,1 C 22,8 C 51 % 1024,3 hPa 0,0 l/m 2 min 0 min 371 W/m 12,9 km/h (3 Bft) 95,74 %
08.08.2022 18:32 26,9 C 31,7 C 22,8 C 51 % 1024,4 hPa 0,0 l/m 2 min 0 min 365 W/m 12,9 km/h (3 Bft) 89,36 %
08.08.2022 18:34 26,9 C 31,7 C 22,8 C 51 % 1024,3 hPa 0,0 l/m 2 min 0 min 364 W/m 9,7 km/h (2 Bft) 97,83 %
08.08.2022 18:36 26,8 C 31,7 C 22,2 C 51 % 1024,3 hPa 0,0 l/m 2 min 0 min 355 W/m 22,5 km/h (4 Bft) 97,87 %
08.08.2022 18:38 26,8 C 31,7 C 22,2 C 51 % 1024,3 hPa 0,0 l/m 2 min 0 min 347 W/m 22,5 km/h (4 Bft) 93,62 %
08.08.2022 18:40 26,7 C 31,1 C 22,2 C 51 % 1024,3 hPa 0,0 l/m 2 min 0 min 345 W/m 6,4 km/h (2 Bft) 97,87 %
08.08.2022 18:42 26,6 C 31,1 C 21,7 C 51 % 1024,3 hPa 0,0 l/m 2 min 0 min 340 W/m 16,1 km/h (3 Bft) 93,62 %
08.08.2022 18:44 26,5 C 31,7 C 21,7 C 51 % 1024,3 hPa 0,0 l/m 2 min 0 min 330 W/m 12,9 km/h (3 Bft) 97,87 %
08.08.2022 18:46 26,4 C 31,1 C 21,7 C 51 % 1024,3 hPa 0,0 l/m 2 min 0 min 325 W/m 16,1 km/h (3 Bft) 97,83 %
08.08.2022 18:48 26,3 C 31,1 C 21,7 C 52 % 1024,3 hPa 0,0 l/m 2 min 0 min 321 W/m 12,9 km/h (3 Bft) 97,87 %
08.08.2022 18:50 26,2 C 30,6 C 21,1 C 51 % 1024,4 hPa 0,0 l/m 2 min 0 min 316 W/m 16,1 km/h (3 Bft) 97,87 %
08.08.2022 18:52 26,2 C 30,6 C 21,1 C 51 % 1024,3 hPa 0,0 l/m 2 min 0 min 306 W/m 12,9 km/h (3 Bft) 95,74 %
08.08.2022 18:54 26,0 C 30,0 C 21,1 C 52 % 1024,4 hPa 0,0 l/m 2 min 0 min 300 W/m 19,3 km/h (3 Bft) 97,87 %
08.08.2022 18:56 25,9 C 30,0 C 21,1 C 52 % 1024,4 hPa 0,0 l/m 2 min 0 min 293 W/m 25,7 km/h (4 Bft) 97,87 %
08.08.2022 18:58 25,8 C 30,0 C 21,1 C 52 % 1024,4 hPa 0,0 l/m 2 min 0 min 286 W/m 16,1 km/h (3 Bft) 95,65 %
08.08.2022 19:00 25,7 C 30,0 C 20,6 C 52 % 1024,3 hPa 0,0 l/m 2 min 0 min 279 W/m 12,9 km/h (3 Bft) 95,74 %
08.08.2022 19:02 25,6 C 28,3 C 20,6 C 53 % 1024,3 hPa 0,0 l/m 2 min 0 min 274 W/m 12,9 km/h (3 Bft) 94,29 %
08.08.2022 19:04 25,6 C 27,2 C 20,6 C 53 % 1024,3 hPa 0,0 l/m 2 min 0 min 266 W/m 9,7 km/h (2 Bft) 95,74 %
08.08.2022 19:06 25,4 C 26,1 C 20,6 C 53 % 1024,3 hPa 0,0 l/m 2 min 0 min 259 W/m 16,1 km/h (3 Bft) 93,22 %
08.08.2022 19:08 25,4 C 25,6 C 20,6 C 53 % 1024,3 hPa 0,0 l/m 2 min 0 min 251 W/m 16,1 km/h (3 Bft) 100,00 %
08.08.2022 19:10 25,3 C 25,0 C 20,6 C 53 % 1024,3 hPa 0,0 l/m 2 min 0 min 245 W/m 9,7 km/h (2 Bft) 97,87 %
08.08.2022 19:12 25,2 C 25,0 C 20,6 C 53 % 1024,3 hPa 0,0 l/m 2 min 0 min 238 W/m 19,3 km/h (3 Bft) 93,62 %
08.08.2022 19:14 25,2 C 25,0 C 20,6 C 53 % 1024,3 hPa 0,0 l/m 2 min 0 min 231 W/m 16,1 km/h (3 Bft) 93,48 %
08.08.2022 19:16 25,2 C 24,4 C 20,6 C 53 % 1024,4 hPa 0,0 l/m 2 min 0 min 226 W/m 22,5 km/h (4 Bft) 95,74 %
08.08.2022 19:18 25,1 C 24,4 C 20,6 C 53 % 1024,4 hPa 0,0 l/m 2 min 0 min 220 W/m 22,5 km/h (4 Bft) 95,74 %
08.08.2022 19:20 25,1 C 24,4 C 20,6 C 53 % 1024,4 hPa 0,0 l/m 0 min 0 min 127 W/m 12,9 km/h (3 Bft) 95,74 %
08.08.2022 19:22 25,0 C 24,4 C 20,0 C 54 % 1024,4 hPa 0,0 l/m 0 min 0 min 62 W/m 12,9 km/h (3 Bft) 98,11 %
08.08.2022 19:24 24,9 C 24,4 C 20,0 C 54 % 1024,4 hPa 0,0 l/m 0 min 0 min 52 W/m 16,1 km/h (3 Bft) 97,87 %
08.08.2022 19:26 24,9 C 24,4 C 20,0 C 54 % 1024,4 hPa 0,0 l/m 0 min 0 min 51 W/m 9,7 km/h (2 Bft) 97,87 %
08.08.2022 19:28 24,8 C 24,4 C 20,0 C 54 % 1024,5 hPa 0,0 l/m 0 min 0 min 50 W/m 6,4 km/h (2 Bft) 97,83 %
08.08.2022 19:30 24,8 C 23,9 C 20,0 C 54 % 1024,6 hPa 0,0 l/m 0 min 0 min 49 W/m 16,1 km/h (3 Bft) 100,00 %
08.08.2022 19:32 24,8 C 23,9 C 20,0 C 55 % 1024,6 hPa 0,0 l/m 0 min 0 min 49 W/m 9,7 km/h (2 Bft) 100,00 %
08.08.2022 19:34 24,8 C 23,9 C 20,0 C 54 % 1024,5 hPa 0,0 l/m 0 min 0 min 48 W/m 19,3 km/h (3 Bft) 100,00 %
08.08.2022 19:36 24,7 C 23,9 C 20,0 C 55 % 1024,6 hPa 0,0 l/m 0 min 0 min 47 W/m 12,9 km/h (3 Bft) 98,28 %
08.08.2022 19:38 24,7 C 23,9 C 20,0 C 55 % 1024,6 hPa 0,0 l/m 0 min 0 min 46 W/m 12,9 km/h (3 Bft) 100,00 %
08.08.2022 19:40 24,6 C 23,9 C 20,0 C 55 % 1024,6 hPa 0,0 l/m 0 min 0 min 46 W/m 12,9 km/h (3 Bft) 100,00 %
08.08.2022 19:42 24,6 C 23,9 C 20,0 C 55 % 1024,7 hPa 0,0 l/m 0 min 0 min 45 W/m 12,9 km/h (3 Bft) 97,87 %
08.08.2022 19:44 24,5 C 23,9 C 20,0 C 56 % 1024,6 hPa 0,0 l/m 0 min 0 min 44 W/m 19,3 km/h (3 Bft) 100,00 %
08.08.2022 19:46 24,4 C 23,9 C 19,4 C 56 % 1024,6 hPa 0,0 l/m 0 min 0 min 42 W/m 9,7 km/h (2 Bft) 100,00 %
08.08.2022 19:48 24,4 C 23,9 C 19,4 C 56 % 1024,7 hPa 0,0 l/m 0 min 0 min 42 W/m 16,1 km/h (3 Bft) 100,00 %
08.08.2022 19:50 24,3 C 23,3 C 19,4 C 57 % 1024,7 hPa 0,0 l/m 0 min 0 min 40 W/m 6,4 km/h (2 Bft) 100,00 %
08.08.2022 19:52 24,3 C 23,3 C 19,4 C 56 % 1024,7 hPa 0,0 l/m 0 min 0 min 40 W/m 16,1 km/h (3 Bft) 97,92 %
08.08.2022 19:54 24,3 C 23,3 C 19,4 C 57 % 1024,7 hPa 0,0 l/m 0 min 0 min 39 W/m 6,4 km/h (2 Bft) 100,00 %
08.08.2022 19:56 24,2 C 23,3 C 19,4 C 57 % 1024,7 hPa 0,0 l/m 0 min 0 min 38 W/m 9,7 km/h (2 Bft) 100,00 %
08.08.2022 19:58 24,2 C 23,3 C 19,4 C 57 % 1024,7 hPa 0,0 l/m 0 min 0 min 36 W/m 16,1 km/h (3 Bft) 100,00 %
08.08.2022 20:00 24,1 C 23,3 C 18,9 C 58 % 1024,7 hPa 0,0 l/m 0 min 0 min 35 W/m 16,1 km/h (3 Bft) 100,00 %
08.08.2022 20:02 24,1 C 23,3 C 18,9 C 58 % 1024,7 hPa 0,0 l/m 0 min 0 min 34 W/m 6,4 km/h (2 Bft) 100,00 %
08.08.2022 20:04 24,0 C 23,3 C 18,9 C 58 % 1024,7 hPa 0,0 l/m 0 min 0 min 33 W/m 9,7 km/h (2 Bft) 100,00 %
08.08.2022 20:06 23,9 C 23,3 C 18,9 C 58 % 1024,8 hPa 0,0 l/m 0 min 0 min 32 W/m 12,9 km/h (3 Bft) 100,00 %
08.08.2022 20:08 23,9 C 23,3 C 18,9 C 58 % 1024,8 hPa 0,0 l/m 0 min 0 min 32 W/m 6,4 km/h (2 Bft) 100,00 %
08.08.2022 20:10 23,9 C 22,8 C 18,3 C 59 % 1024,7 hPa 0,0 l/m 0 min 0 min 30 W/m 19,3 km/h (3 Bft) 100,00 %
08.08.2022 20:12 23,8 C 22,8 C 18,3 C 58 % 1024,7 hPa 0,0 l/m 0 min 0 min 30 W/m 12,9 km/h (3 Bft) 100,00 %
08.08.2022 20:14 23,8 C 22,8 C 18,9 C 58 % 1024,8 hPa 0,0 l/m 0 min 0 min 28 W/m 12,9 km/h (3 Bft) 100,00 %
08.08.2022 20:16 23,8 C 22,8 C 18,3 C 59 % 1024,8 hPa 0,0 l/m 0 min 0 min 27 W/m 9,7 km/h (2 Bft) 97,87 %
08.08.2022 20:18 23,7 C 22,8 C 18,3 C 58 % 1024,8 hPa 0,0 l/m 0 min 0 min 26 W/m 12,9 km/h (3 Bft) 100,00 %
08.08.2022 20:20 23,7 C 22,8 C 18,3 C 59 % 1024,8 hPa 0,0 l/m 0 min 0 min 26 W/m 12,9 km/h (3 Bft) 97,96 %
08.08.2022 20:22 23,6 C 22,8 C 18,3 C 59 % 1024,8 hPa 0,0 l/m 0 min 0 min 25 W/m 16,1 km/h (3 Bft) 97,83 %
08.08.2022 20:24 23,6 C 22,8 C 18,3 C 59 % 1024,8 hPa 0,0 l/m 0 min 0 min 24 W/m 9,7 km/h (2 Bft) 97,87 %
08.08.2022 20:26 23,5 C 22,8 C 18,3 C 59 % 1024,7 hPa 0,0 l/m 0 min 0 min 23 W/m 12,9 km/h (3 Bft) 97,87 %
08.08.2022 20:28 23,4 C 22,8 C 18,3 C 59 % 1024,8 hPa 0,0 l/m 0 min 0 min 21 W/m 6,4 km/h (2 Bft) 95,74 %
08.08.2022 20:30 23,4 C 22,8 C 18,3 C 59 % 1024,8 hPa 0,0 l/m 0 min 0 min 21 W/m 9,7 km/h (2 Bft) 97,87 %
08.08.2022 20:32 23,4 C 22,2 C 18,3 C 59 % 1024,8 hPa 0,0 l/m 0 min 0 min 20 W/m 6,4 km/h (2 Bft) 97,87 %
08.08.2022 20:34 23,3 C 22,2 C 18,3 C 60 % 1024,8 hPa 0,0 l/m 0 min 0 min 19 W/m 9,7 km/h (2 Bft) 97,83 %
08.08.2022 20:36 23,3 C 22,2 C 18,3 C 60 % 1024,8 hPa 0,0 l/m 0 min 0 min 18 W/m 9,7 km/h (2 Bft) 97,87 %
08.08.2022 20:38 23,2 C 22,2 C 18,3 C 60 % 1024,9 hPa 0,0 l/m 0 min 0 min 18 W/m 6,4 km/h (2 Bft) 97,62 %
08.08.2022 20:40 23,2 C 22,2 C 18,3 C 60 % 1024,8 hPa 0,0 l/m 0 min 0 min 17 W/m 12,9 km/h (3 Bft) 97,83 %
08.08.2022 20:42 23,2 C 22,2 C 18,3 C 61 % 1024,8 hPa 0,0 l/m 0 min 0 min 16 W/m 9,7 km/h (2 Bft) 97,87 %
08.08.2022 20:44 23,1 C 22,2 C 18,3 C 60 % 1024,8 hPa 0,0 l/m 0 min 0 min 15 W/m 6,4 km/h (2 Bft) 97,87 %
08.08.2022 20:46 23,1 C 22,2 C 18,3 C 60 % 1024,9 hPa 0,0 l/m 0 min 0 min 14 W/m 9,7 km/h (2 Bft) 97,87 %
08.08.2022 20:48 23,1 C 22,2 C 18,3 C 61 % 1024,9 hPa 0,0 l/m 0 min 0 min 14 W/m 6,4 km/h (2 Bft) 95,74 %
08.08.2022 20:50 23,0 C 22,2 C 18,3 C 60 % 1025,0 hPa 0,0 l/m 0 min 0 min 12 W/m 3,2 km/h (1 Bft) 97,87 %
08.08.2022 20:52 23,0 C 22,2 C 17,8 C 60 % 1025,0 hPa 0,0 l/m 0 min 0 min 12 W/m 6,4 km/h (2 Bft) 95,65 %
08.08.2022 20:54 22,9 C 22,2 C 17,8 C 61 % 1024,9 hPa 0,0 l/m 0 min 0 min 11 W/m 6,4 km/h (2 Bft) 97,87 %
08.08.2022 20:56 22,9 C 22,2 C 17,8 C 60 % 1025,0 hPa 0,0 l/m 0 min 0 min 11 W/m 6,4 km/h (2 Bft) 95,74 %
08.08.2022 20:58 22,9 C 21,7 C 17,8 C 60 % 1025,1 hPa 0,0 l/m 0 min 0 min 9 W/m 6,4 km/h (2 Bft) 95,74 %
08.08.2022 21:00 22,8 C 21,7 C 17,8 C 60 % 1025,1 hPa 0,0 l/m 0 min 0 min 9 W/m 12,9 km/h (3 Bft) 95,74 %
08.08.2022 21:02 22,8 C 21,7 C 17,8 C 61 % 1025,1 hPa 0,0 l/m 0 min 0 min 7 W/m 6,4 km/h (2 Bft) 93,62 %
08.08.2022 21:04 22,7 C 21,7 C 17,8 C 61 % 1025,1 hPa 0,0 l/m 0 min 0 min 7 W/m 9,7 km/h (2 Bft) 95,65 %
08.08.2022 21:06 22,7 C 21,7 C 17,8 C 60 % 1025,2 hPa 0,0 l/m 0 min 0 min 6 W/m 9,7 km/h (2 Bft) 96,61 %
08.08.2022 21:08 22,7 C 21,7 C 17,8 C 60 % 1025,3 hPa 0,0 l/m 0 min 0 min 5 W/m 6,4 km/h (2 Bft) 97,14 %
08.08.2022 21:10 22,7 C 21,7 C 17,8 C 61 % 1025,2 hPa 0,0 l/m 0 min 0 min 5 W/m 3,2 km/h (1 Bft) 97,87 %
08.08.2022 21:12 22,6 C 21,7 C 17,8 C 61 % 1025,3 hPa 0,0 l/m 0 min 0 min 0 W/m 12,9 km/h (3 Bft) 97,92 %
08.08.2022 21:14 22,6 C 21,7 C 17,8 C 61 % 1025,3 hPa 0,0 l/m 0 min 0 min 0 W/m 12,9 km/h (3 Bft) 95,65 %
08.08.2022 21:16 22,5 C 21,1 C 17,8 C 61 % 1025,3 hPa 0,0 l/m 0 min 0 min 0 W/m 6,4 km/h (2 Bft) 97,87 %
08.08.2022 21:18 22,5 C 21,1 C 17,8 C 61 % 1025,4 hPa 0,0 l/m 0 min 0 min 0 W/m 6,4 km/h (2 Bft) 95,83 %
08.08.2022 21:20 22,4 C 21,1 C 17,8 C 61 % 1025,4 hPa 0,0 l/m 0 min 0 min 0 W/m 3,2 km/h (1 Bft) 93,62 %
08.08.2022 21:22 22,4 C 21,1 C 17,8 C 62 % 1025,4 hPa 0,0 l/m 0 min 0 min 0 W/m 6,4 km/h (2 Bft) 95,74 %
08.08.2022 21:24 22,4 C 21,1 C 17,2 C 62 % 1025,4 hPa 0,0 l/m 0 min 0 min 0 W/m 6,4 km/h (2 Bft) 97,87 %
08.08.2022 21:26 22,3 C 21,1 C 17,2 C 62 % 1025,4 hPa 0,0 l/m 0 min 0 min 0 W/m 12,9 km/h (3 Bft) 95,65 %
08.08.2022 21:28 22,3 C 21,1 C 17,2 C 61 % 1025,4 hPa 0,0 l/m 0 min 0 min 0 W/m 9,7 km/h (2 Bft) 100,00 %
08.08.2022 21:30 22,2 C 21,1 C 17,2 C 61 % 1025,5 hPa 0,0 l/m 0 min 0 min 0 W/m 6,4 km/h (2 Bft) 97,87 %
08.08.2022 21:32 22,2 C 21,1 C 17,2 C 61 % 1025,5 hPa 0,0 l/m 0 min 0 min 0 W/m 3,2 km/h (1 Bft) 95,83 %
08.08.2022 21:34 22,2 C 21,1 C 17,2 C 62 % 1025,5 hPa 0,0 l/m 0 min 0 min 0 W/m 9,7 km/h (2 Bft) 97,87 %
08.08.2022 21:36 22,1 C 21,1 C 17,2 C 62 % 1025,6 hPa 0,0 l/m 0 min 0 min 0 W/m 6,4 km/h (2 Bft) 97,87 %
08.08.2022 21:38 22,1 C 20,6 C 17,2 C 62 % 1025,6 hPa 0,0 l/m 0 min 0 min 0 W/m 9,7 km/h (2 Bft) 95,65 %
08.08.2022 21:40 22,1 C 20,6 C 17,2 C 62 % 1025,6 hPa 0,0 l/m 0 min 0 min 0 W/m 3,2 km/h (1 Bft) 97,87 %
08.08.2022 21:42 22,0 C 20,6 C 17,2 C 62 % 1025,6 hPa 0,0 l/m 0 min 0 min 0 W/m 3,2 km/h (1 Bft) 97,87 %
08.08.2022 21:44 21,9 C 20,6 C 17,2 C 63 % 1025,7 hPa 0,0 l/m 0 min 0 min 0 W/m 12,9 km/h (3 Bft) 97,87 %
08.08.2022 21:46 21,9 C 20,6 C 17,2 C 62 % 1025,7 hPa 0,0 l/m 0 min 0 min 0 W/m 3,2 km/h (1 Bft) 97,87 %
08.08.2022 21:48 21,9 C 20,6 C 16,7 C 62 % 1025,7 hPa 0,0 l/m 0 min 0 min 0 W/m 3,2 km/h (1 Bft) 97,92 %
08.08.2022 21:50 21,8 C 20,6 C 16,7 C 64 % 1025,7 hPa 0,0 l/m 0 min 0 min 0 W/m 6,4 km/h (2 Bft) 95,65 %
08.08.2022 21:52 21,8 C 20,6 C 16,7 C 63 % 1025,7 hPa 0,0 l/m 0 min 0 min 0 W/m 3,2 km/h (1 Bft) 93,62 %
08.08.2022 21:54 21,7 C 20,6 C 16,7 C 63 % 1025,8 hPa 0,0 l/m 0 min 0 min 0 W/m 6,4 km/h (2 Bft) 97,87 %
08.08.2022 21:56 21,7 C 20,6 C 16,7 C 63 % 1025,8 hPa 0,0 l/m 0 min 0 min 0 W/m 3,2 km/h (1 Bft) 95,74 %
08.08.2022 21:58 21,7 C 20,6 C 16,7 C 64 % 1025,8 hPa 0,0 l/m 0 min 0 min 0 W/m 3,2 km/h (1 Bft) 97,87 %
08.08.2022 22:00 21,7 C 20,6 C 16,7 C 63 % 1025,7 hPa 0,0 l/m 0 min 0 min 0 W/m 3,2 km/h (1 Bft) 97,87 %
08.08.2022 22:02 21,6 C 20,6 C 16,7 C 63 % 1025,8 hPa 0,0 l/m 0 min 0 min 0 W/m 3,2 km/h (1 Bft) 95,74 %
08.08.2022 22:04 21,6 C 20,6 C 16,7 C 64 % 1025,8 hPa 0,0 l/m 0 min 0 min 0 W/m 3,2 km/h (1 Bft) 97,87 %
08.08.2022 22:06 21,6 C 20,0 C 16,7 C 64 % 1025,8 hPa 0,0 l/m 0 min 0 min 0 W/m 3,2 km/h (1 Bft) 97,87 %
08.08.2022 22:08 21,5 C 20,0 C 16,7 C 64 % 1025,8 hPa 0,0 l/m 0 min 0 min 0 W/m 3,2 km/h (1 Bft) 97,87 %
08.08.2022 22:10 21,4 C 20,0 C 16,7 C 64 % 1025,8 hPa 0,0 l/m 0 min 0 min 0 W/m 6,4 km/h (2 Bft) 97,87 %
08.08.2022 22:12 21,4 C 20,0 C 16,7 C 64 % 1025,8 hPa 0,0 l/m 0 min 0 min 0 W/m 6,4 km/h (2 Bft) 97,87 %
08.08.2022 22:14 21,3 C 20,0 C 16,7 C 64 % 1025,8 hPa 0,0 l/m 0 min 0 min 0 W/m 3,2 km/h (1 Bft) 97,83 %
08.08.2022 22:16 21,3 C 20,0 C 16,7 C 64 % 1025,8 hPa 0,0 l/m 0 min 0 min 0 W/m 9,7 km/h (2 Bft) 97,87 %
08.08.2022 22:18 21,3 C 20,0 C 16,7 C 64 % 1025,9 hPa 0,0 l/m 0 min 0 min 0 W/m 3,2 km/h (1 Bft) 97,87 %
08.08.2022 22:20 21,2 C 20,0 C 16,7 C 64 % 1025,8 hPa 0,0 l/m 0 min 0 min 0 W/m 6,4 km/h (2 Bft) 100,00 %
08.08.2022 22:22 21,2 C 20,0 C 16,7 C 64 % 1025,9 hPa 0,0 l/m 0 min 0 min 0 W/m 3,2 km/h (1 Bft) 97,87 %
08.08.2022 22:24 21,2 C 20,0 C 16,1 C 65 % 1025,9 hPa 0,0 l/m 0 min 0 min 0 W/m 9,7 km/h (2 Bft) 100,00 %
08.08.2022 22:26 21,2 C 20,0 C 16,1 C 65 % 1025,9 hPa 0,0 l/m 0 min 0 min 0 W/m 3,2 km/h (1 Bft) 100,00 %
08.08.2022 22:28 21,1 C 20,0 C 16,1 C 65 % 1025,9 hPa 0,0 l/m 0 min 0 min 0 W/m 3,2 km/h (1 Bft) 100,00 %
08.08.2022 22:30 21,1 C 20,0 C 16,1 C 65 % 1025,9 hPa 0,0 l/m 0 min 0 min 0 W/m 3,2 km/h (1 Bft) 100,00 %
08.08.2022 22:32 21,1 C 20,0 C 16,1 C 65 % 1025,9 hPa 0,0 l/m 0 min 0 min 0 W/m 3,2 km/h (1 Bft) 97,87 %
08.08.2022 22:34 21,0 C 20,0 C 16,1 C 65 % 1025,9 hPa 0,0 l/m 0 min 0 min 0 W/m 6,4 km/h (2 Bft) 100,00 %
08.08.2022 22:36 20,9 C 20,0 C 16,1 C 65 % 1026,0 hPa 0,0 l/m 0 min 0 min 0 W/m 6,4 km/h (2 Bft) 100,00 %
08.08.2022 22:38 20,9 C 20,0 C 16,1 C 65 % 1026,0 hPa 0,0 l/m 0 min 0 min 0 W/m 6,4 km/h (2 Bft) 100,00 %
08.08.2022 22:40 20,9 C 20,0 C 16,1 C 65 % 1025,9 hPa 0,0 l/m 0 min 0 min 0 W/m 6,4 km/h (2 Bft) 100,00 %
08.08.2022 22:42 20,8 C 19,4 C 16,1 C 66 % 1026,0 hPa 0,0 l/m 0 min 0 min 0 W/m 3,2 km/h (1 Bft) 100,00 %
08.08.2022 22:44 20,8 C 19,4 C 16,1 C 66 % 1025,9 hPa 0,0 l/m 0 min 0 min 0 W/m 6,4 km/h (2 Bft) 97,87 %
08.08.2022 22:46 20,8 C 19,4 C 16,1 C 66 % 1026,0 hPa 0,0 l/m 0 min 0 min 0 W/m 6,4 km/h (2 Bft) 100,00 %
08.08.2022 22:48 20,7 C 19,4 C 16,1 C 66 % 1026,0 hPa 0,0 l/m 0 min 0 min 0 W/m 6,4 km/h (2 Bft) 98,28 %
08.08.2022 22:50 20,7 C 19,4 C 16,1 C 66 % 1026,0 hPa 0,0 l/m 0 min 0 min 0 W/m 12,9 km/h (3 Bft) 97,87 %
08.08.2022 22:52 20,6 C 19,4 C 16,1 C 66 % 1026,0 hPa 0,0 l/m 0 min 0 min 0 W/m 9,7 km/h (2 Bft) 97,87 %
08.08.2022 22:54 20,6 C 19,4 C 16,1 C 66 % 1026,0 hPa 0,0 l/m 0 min 0 min 0 W/m 6,4 km/h (2 Bft) 97,87 %
08.08.2022 22:56 20,6 C 19,4 C 16,1 C 66 % 1026,1 hPa 0,0 l/m 0 min 0 min 0 W/m 6,4 km/h (2 Bft) 97,83 %
08.08.2022 22:58 20,6 C 19,4 C 16,1 C 66 % 1026,0 hPa 0,0 l/m 0 min 0 min 0 W/m 3,2 km/h (1 Bft) 94,44 %
08.08.2022 23:00 20,5 C 19,4 C 15,6 C 67 % 1026,0 hPa 0,0 l/m 0 min 0 min 0 W/m 12,9 km/h (3 Bft) 97,83 %
08.08.2022 23:02 20,4 C 19,4 C 15,6 C 67 % 1026,1 hPa 0,0 l/m 0 min 0 min 0 W/m 6,4 km/h (2 Bft) 97,87 %
08.08.2022 23:04 20,4 C 19,4 C 15,6 C 67 % 1026,1 hPa 0,0 l/m 0 min 0 min 0 W/m 9,7 km/h (2 Bft) 95,74 %
08.08.2022 23:06 20,4 C 19,4 C 15,6 C 67 % 1026,1 hPa 0,0 l/m 0 min 0 min 0 W/m 6,4 km/h (2 Bft) 96,61 %
08.08.2022 23:08 20,3 C 19,4 C 15,6 C 67 % 1026,1 hPa 0,0 l/m 0 min 0 min 0 W/m 16,1 km/h (3 Bft) 94,29 %
08.08.2022 23:10 20,3 C 19,4 C 15,6 C 67 % 1026,1 hPa 0,0 l/m 0 min 0 min 0 W/m 9,7 km/h (2 Bft) 95,74 %
08.08.2022 23:12 20,3 C 19,4 C 15,6 C 67 % 1026,1 hPa 0,0 l/m 0 min 0 min 0 W/m 12,9 km/h (3 Bft) 95,65 %
08.08.2022 23:14 20,3 C 19,4 C 15,6 C 68 % 1026,2 hPa 0,0 l/m 0 min 0 min 0 W/m 12,9 km/h (3 Bft) 95,74 %
08.08.2022 23:16 20,2 C 19,4 C 15,6 C 68 % 1026,1 hPa 0,0 l/m 0 min 0 min 0 W/m 6,4 km/h (2 Bft) 97,87 %
08.08.2022 23:18 20,2 C 19,4 C 15,6 C 68 % 1026,1 hPa 0,0 l/m 0 min 0 min 0 W/m 9,7 km/h (2 Bft) 96,23 %
08.08.2022 23:20 20,2 C 18,9 C 15,6 C 68 % 1026,1 hPa 0,0 l/m 0 min 0 min 0 W/m 6,4 km/h (2 Bft) 95,74 %
08.08.2022 23:22 20,2 C 18,9 C 15,6 C 68 % 1026,1 hPa 0,0 l/m 0 min 0 min 0 W/m 9,7 km/h (2 Bft) 97,87 %
08.08.2022 23:24 20,1 C 18,9 C 15,6 C 68 % 1026,1 hPa 0,0 l/m 0 min 0 min 0 W/m 12,9 km/h (3 Bft) 95,74 %
08.08.2022 23:26 20,1 C 18,9 C 15,6 C 68 % 1026,1 hPa 0,0 l/m 0 min 0 min 0 W/m 9,7 km/h (2 Bft) 97,83 %
08.08.2022 23:28 20,1 C 18,9 C 15,6 C 68 % 1026,1 hPa 0,0 l/m 0 min 0 min 0 W/m 9,7 km/h (2 Bft) 95,74 %
08.08.2022 23:30 20,1 C 18,9 C 15,6 C 69 % 1026,1 hPa 0,0 l/m 0 min 0 min 0 W/m 16,1 km/h (3 Bft) 97,92 %
08.08.2022 23:32 20,1 C 18,9 C 15,6 C 69 % 1026,1 hPa 0,0 l/m 0 min 0 min 0 W/m 6,4 km/h (2 Bft) 100,00 %
08.08.2022 23:34 20,1 C 18,9 C 15,6 C 69 % 1026,1 hPa 0,0 l/m 0 min 0 min 0 W/m 9,7 km/h (2 Bft) 95,74 %
08.08.2022 23:36 20,0 C 18,9 C 15,6 C 69 % 1026,1 hPa 0,0 l/m 0 min 0 min 0 W/m 16,1 km/h (3 Bft) 97,87 %
08.08.2022 23:38 20,0 C 18,9 C 15,6 C 69 % 1026,1 hPa 0,0 l/m 0 min 0 min 0 W/m 16,1 km/h (3 Bft) 97,83 %
08.08.2022 23:40 20,0 C 18,9 C 15,6 C 69 % 1026,2 hPa 0,0 l/m 0 min 0 min 0 W/m 6,4 km/h (2 Bft) 95,74 %
08.08.2022 23:42 19,9 C 18,9 C 15,6 C 70 % 1026,1 hPa 0,0 l/m 0 min 0 min 0 W/m 6,4 km/h (2 Bft) 95,74 %
08.08.2022 23:44 19,9 C 18,9 C 15,6 C 70 % 1026,2 hPa 0,0 l/m 0 min 0 min 0 W/m 6,4 km/h (2 Bft) 97,87 %
08.08.2022 23:46 19,9 C 18,9 C 15,6 C 70 % 1026,2 hPa 0,0 l/m 0 min 0 min 0 W/m 6,4 km/h (2 Bft) 97,87 %
08.08.2022 23:48 19,8 C 18,9 C 15,6 C 70 % 1026,1 hPa 0,0 l/m 0 min 0 min 0 W/m 16,1 km/h (3 Bft) 97,87 %
08.08.2022 23:50 19,8 C 18,9 C 15,6 C 70 % 1026,1 hPa 0,0 l/m 0 min 0 min 0 W/m 6,4 km/h (2 Bft) 97,87 %
08.08.2022 23:52 19,8 C 18,9 C 15,6 C 70 % 1026,1 hPa 0,0 l/m 0 min 0 min 0 W/m 6,4 km/h (2 Bft) 95,74 %
08.08.2022 23:54 19,8 C 18,9 C 15,0 C 71 % 1026,1 hPa 0,0 l/m 0 min 0 min 0 W/m 6,4 km/h (2 Bft) 97,87 %
08.08.2022 23:56 19,8 C 18,9 C 15,0 C 71 % 1026,2 hPa 0,0 l/m 0 min 0 min 0 W/m 9,7 km/h (2 Bft) 97,87 %
08.08.2022 23:58 19,7 C 18,9 C 15,0 C 71 % 1026,2 hPa 0,0 l/m 0 min 0 min 0 W/m 9,7 km/h (2 Bft) 97,87 %
_ Min-Zeit 06:14 05:54 05:18 17:22 00:00 - - - - 02:32 03:06
Minimum _ 14,0 C 12,8 C 10,0 C 45 % 1023,9 hPa - - - - 0,0 km/h (0 Bft) 56,52 %
_ Max-Zeit 17:42 17:30 12:32 07:00 23:14 00:00 09:26 00:00 14:02 15:10 00:00
Maximum _ 27,6 C 33,9 C 26,1 C 90 % 1026,2 hPa 0,0 l/m 4 min 0 min 944 W/m 35,4 km/h
SO (5 Bft)
100,00 %
Durchschnitt _ 20,9 C 21,8 C 16,5 C 66 % 1024,9 hPa #0,0 l/m #10:54 h #0 min. 473 W/m 9,4 km/h (2 Bft) 97,54 %
© 2022 W. Hausmann